﻿<?xml version="1.0" encoding="UTF-8" standalone="no" ?>
<gpx xmlns="http://www.topografix.com/GPX/1/1" creator="CompeGPS" version="1.1" xmlns:xsi="http://www.w3.org/2001/XMLSchema-instance" xsi:schemaLocation="http://www.topografix.com/GPX/1/1 http://www.topografix.com/GPX/1/1/gpx.xsd http://www.garmin.com/xmlschemas/GpxExtensions/v3 http://www.garmin.com/xmlschemas/GpxExtensionsv3.xsd http://www.garmin.com/xmlschemas/TrackPointExtension/v1 http://www.garmin.com/xmlschemas/TrackPointExtensionv1.xsd" xmlns:gpxtpx="http://www.garmin.com/xmlschemas/TrackPointExtension/v1">
  <metadata>
    <link href="http://www.compegps.com">
      <text>CompeGPS TEAM, SL</text>
    </link>
    <time>2019-12-07T19:57:09Z</time>
    <bounds maxlat="42.814915" maxlon="0.670658" minlat="42.798204" minlon="0.616439"/>
  </metadata>
  <trk>
    <name>tuc_de_poujastou</name>
    <userMyTwoNav></userMyTwoNav>
    <serialNumber></serialNumber>
    <trkseg>
      <trkpt lat="42.811528" lon="0.616439">
        <ele>963.6</ele>
        <time>2019-11-24T09:13:15Z</time>
      </trkpt>
      <trkpt lat="42.811446" lon="0.616468">
        <ele>963.8</ele>
        <time>2019-11-24T09:14:27Z</time>
      </trkpt>
      <trkpt lat="42.811383" lon="0.616577">
        <ele>963.8</ele>
        <time>2019-11-24T09:14:41Z</time>
      </trkpt>
      <trkpt lat="42.811318" lon="0.616664">
        <ele>963.8</ele>
        <time>2019-11-24T09:14:52Z</time>
      </trkpt>
      <trkpt lat="42.811286" lon="0.616793">
        <ele>963.8</ele>
        <time>2019-11-24T09:15:02Z</time>
      </trkpt>
      <trkpt lat="42.811247" lon="0.616933">
        <ele>963.8</ele>
        <time>2019-11-24T09:15:09Z</time>
      </trkpt>
      <trkpt lat="42.811213" lon="0.617059">
        <ele>963.8</ele>
        <time>2019-11-24T09:15:17Z</time>
      </trkpt>
      <trkpt lat="42.811179" lon="0.617193">
        <ele>963.8</ele>
        <time>2019-11-24T09:15:26Z</time>
      </trkpt>
      <trkpt lat="42.811132" lon="0.617308">
        <ele>965.4</ele>
        <time>2019-11-24T09:15:34Z</time>
      </trkpt>
      <trkpt lat="42.811100" lon="0.617435">
        <ele>966.2</ele>
        <time>2019-11-24T09:15:42Z</time>
      </trkpt>
      <trkpt lat="42.811072" lon="0.617571">
        <ele>967.0</ele>
        <time>2019-11-24T09:15:51Z</time>
      </trkpt>
      <trkpt lat="42.811035" lon="0.617693">
        <ele>967.8</ele>
        <time>2019-11-24T09:16:00Z</time>
      </trkpt>
      <trkpt lat="42.810996" lon="0.617809">
        <ele>968.6</ele>
        <time>2019-11-24T09:16:09Z</time>
      </trkpt>
      <trkpt lat="42.810955" lon="0.617946">
        <ele>969.3</ele>
        <time>2019-11-24T09:16:18Z</time>
      </trkpt>
      <trkpt lat="42.810930" lon="0.618082">
        <ele>969.3</ele>
        <time>2019-11-24T09:16:27Z</time>
      </trkpt>
      <trkpt lat="42.810891" lon="0.618219">
        <ele>969.3</ele>
        <time>2019-11-24T09:16:35Z</time>
      </trkpt>
      <trkpt lat="42.810847" lon="0.618347">
        <ele>969.3</ele>
        <time>2019-11-24T09:16:43Z</time>
      </trkpt>
      <trkpt lat="42.810817" lon="0.618479">
        <ele>970.2</ele>
        <time>2019-11-24T09:16:51Z</time>
      </trkpt>
      <trkpt lat="42.810798" lon="0.618608">
        <ele>970.2</ele>
        <time>2019-11-24T09:16:59Z</time>
      </trkpt>
      <trkpt lat="42.810784" lon="0.618734">
        <ele>971.0</ele>
        <time>2019-11-24T09:17:07Z</time>
      </trkpt>
      <trkpt lat="42.810770" lon="0.618864">
        <ele>971.0</ele>
        <time>2019-11-24T09:17:15Z</time>
      </trkpt>
      <trkpt lat="42.810762" lon="0.618995">
        <ele>971.8</ele>
        <time>2019-11-24T09:17:23Z</time>
      </trkpt>
      <trkpt lat="42.810756" lon="0.619136">
        <ele>971.8</ele>
        <time>2019-11-24T09:17:31Z</time>
      </trkpt>
      <trkpt lat="42.810755" lon="0.619274">
        <ele>972.6</ele>
        <time>2019-11-24T09:17:39Z</time>
      </trkpt>
      <trkpt lat="42.810758" lon="0.619406">
        <ele>973.6</ele>
        <time>2019-11-24T09:17:47Z</time>
      </trkpt>
      <trkpt lat="42.810767" lon="0.619531">
        <ele>974.4</ele>
        <time>2019-11-24T09:17:57Z</time>
      </trkpt>
      <trkpt lat="42.810779" lon="0.619654">
        <ele>975.1</ele>
        <time>2019-11-24T09:18:27Z</time>
      </trkpt>
      <trkpt lat="42.810808" lon="0.619779">
        <ele>976.0</ele>
        <time>2019-11-24T09:18:35Z</time>
      </trkpt>
      <trkpt lat="42.810844" lon="0.619910">
        <ele>976.8</ele>
        <time>2019-11-24T09:18:46Z</time>
      </trkpt>
      <trkpt lat="42.810880" lon="0.620028">
        <ele>977.5</ele>
        <time>2019-11-24T09:18:55Z</time>
      </trkpt>
      <trkpt lat="42.810926" lon="0.620147">
        <ele>979.0</ele>
        <time>2019-11-24T09:19:40Z</time>
      </trkpt>
      <trkpt lat="42.810954" lon="0.620246">
        <ele>979.6</ele>
        <time>2019-11-24T09:20:13Z</time>
      </trkpt>
      <trkpt lat="42.810972" lon="0.620388">
        <ele>981.3</ele>
        <time>2019-11-24T09:20:25Z</time>
      </trkpt>
      <trkpt lat="42.810977" lon="0.620518">
        <ele>982.9</ele>
        <time>2019-11-24T09:20:36Z</time>
      </trkpt>
      <trkpt lat="42.810990" lon="0.620649">
        <ele>985.4</ele>
        <time>2019-11-24T09:20:47Z</time>
      </trkpt>
      <trkpt lat="42.811015" lon="0.620779">
        <ele>987.1</ele>
        <time>2019-11-24T09:20:57Z</time>
      </trkpt>
      <trkpt lat="42.811062" lon="0.620910">
        <ele>988.6</ele>
        <time>2019-11-24T09:21:06Z</time>
      </trkpt>
      <trkpt lat="42.811064" lon="0.621052">
        <ele>989.5</ele>
        <time>2019-11-24T09:21:14Z</time>
      </trkpt>
      <trkpt lat="42.811026" lon="0.621197">
        <ele>991.0</ele>
        <time>2019-11-24T09:21:23Z</time>
      </trkpt>
      <trkpt lat="42.811008" lon="0.621339">
        <ele>992.7</ele>
        <time>2019-11-24T09:21:32Z</time>
      </trkpt>
      <trkpt lat="42.810988" lon="0.621485">
        <ele>992.7</ele>
        <time>2019-11-24T09:21:41Z</time>
      </trkpt>
      <trkpt lat="42.810919" lon="0.621603">
        <ele>993.4</ele>
        <time>2019-11-24T09:21:49Z</time>
      </trkpt>
      <trkpt lat="42.810843" lon="0.621691">
        <ele>994.2</ele>
        <time>2019-11-24T09:21:56Z</time>
      </trkpt>
      <trkpt lat="42.810769" lon="0.621791">
        <ele>995.0</ele>
        <time>2019-11-24T09:22:04Z</time>
      </trkpt>
      <trkpt lat="42.810686" lon="0.621893">
        <ele>995.8</ele>
        <time>2019-11-24T09:22:13Z</time>
      </trkpt>
      <trkpt lat="42.810621" lon="0.621999">
        <ele>996.7</ele>
        <time>2019-11-24T09:22:22Z</time>
      </trkpt>
      <trkpt lat="42.810567" lon="0.622113">
        <ele>998.6</ele>
        <time>2019-11-24T09:22:31Z</time>
      </trkpt>
      <trkpt lat="42.810531" lon="0.622241">
        <ele>1001.3</ele>
        <time>2019-11-24T09:22:42Z</time>
      </trkpt>
      <trkpt lat="42.810492" lon="0.622370">
        <ele>1002.8</ele>
        <time>2019-11-24T09:22:52Z</time>
      </trkpt>
      <trkpt lat="42.810453" lon="0.622498">
        <ele>1004.3</ele>
        <time>2019-11-24T09:23:01Z</time>
      </trkpt>
      <trkpt lat="42.810431" lon="0.622629">
        <ele>1005.1</ele>
        <time>2019-11-24T09:23:09Z</time>
      </trkpt>
      <trkpt lat="42.810441" lon="0.622785">
        <ele>1005.8</ele>
        <time>2019-11-24T09:23:19Z</time>
      </trkpt>
      <trkpt lat="42.810499" lon="0.622913">
        <ele>1005.7</ele>
        <time>2019-11-24T09:23:28Z</time>
      </trkpt>
      <trkpt lat="42.810614" lon="0.623020">
        <ele>1006.5</ele>
        <time>2019-11-24T09:23:39Z</time>
      </trkpt>
      <trkpt lat="42.810674" lon="0.623164">
        <ele>1007.9</ele>
        <time>2019-11-24T09:23:50Z</time>
      </trkpt>
      <trkpt lat="42.810708" lon="0.623318">
        <ele>1009.6</ele>
        <time>2019-11-24T09:24:01Z</time>
      </trkpt>
      <trkpt lat="42.810706" lon="0.623479">
        <ele>1011.2</ele>
        <time>2019-11-24T09:24:12Z</time>
      </trkpt>
      <trkpt lat="42.810705" lon="0.623634">
        <ele>1013.6</ele>
        <time>2019-11-24T09:24:25Z</time>
      </trkpt>
      <trkpt lat="42.810732" lon="0.623781">
        <ele>1015.3</ele>
        <time>2019-11-24T09:24:36Z</time>
      </trkpt>
      <trkpt lat="42.810781" lon="0.623917">
        <ele>1016.8</ele>
        <time>2019-11-24T09:24:48Z</time>
      </trkpt>
      <trkpt lat="42.810848" lon="0.624037">
        <ele>1019.3</ele>
        <time>2019-11-24T09:24:59Z</time>
      </trkpt>
      <trkpt lat="42.810941" lon="0.624071">
        <ele>1021.2</ele>
        <time>2019-11-24T09:25:10Z</time>
      </trkpt>
      <trkpt lat="42.811078" lon="0.624100">
        <ele>1024.5</ele>
        <time>2019-11-24T09:25:27Z</time>
      </trkpt>
      <trkpt lat="42.811211" lon="0.624177">
        <ele>1027.6</ele>
        <time>2019-11-24T09:25:41Z</time>
      </trkpt>
      <trkpt lat="42.811248" lon="0.624340">
        <ele>1029.2</ele>
        <time>2019-11-24T09:25:53Z</time>
      </trkpt>
      <trkpt lat="42.811229" lon="0.624502">
        <ele>1030.7</ele>
        <time>2019-11-24T09:26:06Z</time>
      </trkpt>
      <trkpt lat="42.811184" lon="0.624640">
        <ele>1032.8</ele>
        <time>2019-11-24T09:26:21Z</time>
      </trkpt>
      <trkpt lat="42.811164" lon="0.624756">
        <ele>1032.8</ele>
        <time>2019-11-24T09:26:38Z</time>
      </trkpt>
      <trkpt lat="42.811139" lon="0.624750">
        <ele>1035.9</ele>
        <time>2019-11-24T09:26:57Z</time>
      </trkpt>
      <trkpt lat="42.811087" lon="0.624864">
        <ele>1032.7</ele>
        <time>2019-11-24T09:27:08Z</time>
      </trkpt>
      <trkpt lat="42.811090" lon="0.624982">
        <ele>1030.3</ele>
        <time>2019-11-24T09:27:22Z</time>
      </trkpt>
      <trkpt lat="42.811120" lon="0.624984">
        <ele>1030.3</ele>
        <time>2019-11-24T09:27:47Z</time>
      </trkpt>
      <trkpt lat="42.811184" lon="0.625059">
        <ele>1029.2</ele>
        <time>2019-11-24T09:27:56Z</time>
      </trkpt>
      <trkpt lat="42.811249" lon="0.625168">
        <ele>1027.6</ele>
        <time>2019-11-24T09:28:07Z</time>
      </trkpt>
      <trkpt lat="42.811293" lon="0.625289">
        <ele>1024.7</ele>
        <time>2019-11-24T09:28:24Z</time>
      </trkpt>
      <trkpt lat="42.811360" lon="0.625469">
        <ele>1022.0</ele>
        <time>2019-11-24T09:28:42Z</time>
      </trkpt>
      <trkpt lat="42.811377" lon="0.625677">
        <ele>1021.1</ele>
        <time>2019-11-24T09:28:56Z</time>
      </trkpt>
      <trkpt lat="42.811348" lon="0.625895">
        <ele>1021.0</ele>
        <time>2019-11-24T09:29:09Z</time>
      </trkpt>
      <trkpt lat="42.811363" lon="0.626020">
        <ele>1020.0</ele>
        <time>2019-11-24T09:29:20Z</time>
      </trkpt>
      <trkpt lat="42.811483" lon="0.626111">
        <ele>1017.4</ele>
        <time>2019-11-24T09:29:34Z</time>
      </trkpt>
      <trkpt lat="42.811529" lon="0.626288">
        <ele>1014.0</ele>
        <time>2019-11-24T09:29:49Z</time>
      </trkpt>
      <trkpt lat="42.811551" lon="0.626479">
        <ele>1011.2</ele>
        <time>2019-11-24T09:30:01Z</time>
      </trkpt>
      <trkpt lat="42.811579" lon="0.626630">
        <ele>1008.6</ele>
        <time>2019-11-24T09:30:16Z</time>
      </trkpt>
      <trkpt lat="42.811549" lon="0.626818">
        <ele>1005.8</ele>
        <time>2019-11-24T09:30:28Z</time>
      </trkpt>
      <trkpt lat="42.811518" lon="0.626987">
        <ele>1003.1</ele>
        <time>2019-11-24T09:30:42Z</time>
      </trkpt>
      <trkpt lat="42.811522" lon="0.627156">
        <ele>1000.3</ele>
        <time>2019-11-24T09:30:57Z</time>
      </trkpt>
      <trkpt lat="42.811537" lon="0.627300">
        <ele>999.4</ele>
        <time>2019-11-24T09:31:08Z</time>
      </trkpt>
      <trkpt lat="42.811566" lon="0.627435">
        <ele>997.6</ele>
        <time>2019-11-24T09:31:21Z</time>
      </trkpt>
      <trkpt lat="42.811536" lon="0.627630">
        <ele>994.8</ele>
        <time>2019-11-24T09:31:38Z</time>
      </trkpt>
      <trkpt lat="42.811503" lon="0.627794">
        <ele>992.8</ele>
        <time>2019-11-24T09:31:54Z</time>
      </trkpt>
      <trkpt lat="42.811493" lon="0.627944">
        <ele>990.8</ele>
        <time>2019-11-24T09:32:05Z</time>
      </trkpt>
      <trkpt lat="42.811485" lon="0.628114">
        <ele>989.0</ele>
        <time>2019-11-24T09:32:17Z</time>
      </trkpt>
      <trkpt lat="42.811522" lon="0.628229">
        <ele>987.9</ele>
        <time>2019-11-24T09:32:28Z</time>
      </trkpt>
      <trkpt lat="42.811559" lon="0.628427">
        <ele>986.9</ele>
        <time>2019-11-24T09:32:42Z</time>
      </trkpt>
      <trkpt lat="42.811597" lon="0.628612">
        <ele>985.0</ele>
        <time>2019-11-24T09:32:57Z</time>
      </trkpt>
      <trkpt lat="42.811619" lon="0.628848">
        <ele>981.9</ele>
        <time>2019-11-24T09:33:16Z</time>
      </trkpt>
      <trkpt lat="42.811638" lon="0.629118">
        <ele>978.3</ele>
        <time>2019-11-24T09:33:32Z</time>
      </trkpt>
      <trkpt lat="42.811643" lon="0.629304">
        <ele>975.8</ele>
        <time>2019-11-24T09:33:49Z</time>
      </trkpt>
      <trkpt lat="42.811697" lon="0.629433">
        <ele>974.9</ele>
        <time>2019-11-24T09:34:05Z</time>
      </trkpt>
      <trkpt lat="42.811634" lon="0.629597">
        <ele>974.1</ele>
        <time>2019-11-24T09:34:21Z</time>
      </trkpt>
      <trkpt lat="42.811523" lon="0.629716">
        <ele>974.0</ele>
        <time>2019-11-24T09:34:36Z</time>
      </trkpt>
      <trkpt lat="42.811427" lon="0.629874">
        <ele>974.0</ele>
        <time>2019-11-24T09:34:52Z</time>
      </trkpt>
      <trkpt lat="42.811308" lon="0.630037">
        <ele>973.9</ele>
        <time>2019-11-24T09:35:06Z</time>
      </trkpt>
      <trkpt lat="42.811253" lon="0.630163">
        <ele>973.0</ele>
        <time>2019-11-24T09:35:21Z</time>
      </trkpt>
      <trkpt lat="42.811240" lon="0.630346">
        <ele>973.0</ele>
        <time>2019-11-24T09:35:39Z</time>
      </trkpt>
      <trkpt lat="42.811261" lon="0.630520">
        <ele>971.3</ele>
        <time>2019-11-24T09:35:53Z</time>
      </trkpt>
      <trkpt lat="42.811313" lon="0.630692">
        <ele>970.4</ele>
        <time>2019-11-24T09:36:06Z</time>
      </trkpt>
      <trkpt lat="42.811431" lon="0.630849">
        <ele>969.5</ele>
        <time>2019-11-24T09:36:25Z</time>
      </trkpt>
      <trkpt lat="42.811453" lon="0.630996">
        <ele>968.6</ele>
        <time>2019-11-24T09:36:44Z</time>
      </trkpt>
      <trkpt lat="42.811505" lon="0.631141">
        <ele>968.4</ele>
        <time>2019-11-24T09:37:00Z</time>
      </trkpt>
      <trkpt lat="42.811528" lon="0.631282">
        <ele>968.2</ele>
        <time>2019-11-24T09:37:18Z</time>
      </trkpt>
      <trkpt lat="42.811550" lon="0.631449">
        <ele>971.2</ele>
        <time>2019-11-24T09:37:34Z</time>
      </trkpt>
      <trkpt lat="42.811523" lon="0.631577">
        <ele>971.8</ele>
        <time>2019-11-24T09:37:54Z</time>
      </trkpt>
      <trkpt lat="42.811494" lon="0.631689">
        <ele>971.7</ele>
        <time>2019-11-24T09:38:15Z</time>
      </trkpt>
      <trkpt lat="42.811503" lon="0.631835">
        <ele>973.9</ele>
        <time>2019-11-24T09:38:36Z</time>
      </trkpt>
      <trkpt lat="42.811486" lon="0.631911">
        <ele>971.4</ele>
        <time>2019-11-24T09:38:58Z</time>
      </trkpt>
      <trkpt lat="42.811471" lon="0.632040">
        <ele>971.3</ele>
        <time>2019-11-24T09:39:16Z</time>
      </trkpt>
      <trkpt lat="42.811470" lon="0.632144">
        <ele>971.4</ele>
        <time>2019-11-24T09:39:41Z</time>
      </trkpt>
      <trkpt lat="42.811478" lon="0.632277">
        <ele>971.4</ele>
        <time>2019-11-24T09:40:03Z</time>
      </trkpt>
      <trkpt lat="42.811482" lon="0.632297">
        <ele>975.5</ele>
        <time>2019-11-24T09:40:34Z</time>
      </trkpt>
      <trkpt lat="42.811446" lon="0.632376">
        <ele>973.2</ele>
        <time>2019-11-24T09:40:56Z</time>
      </trkpt>
      <trkpt lat="42.811482" lon="0.632478">
        <ele>972.6</ele>
        <time>2019-11-24T09:41:38Z</time>
      </trkpt>
      <trkpt lat="42.811472" lon="0.632649">
        <ele>972.7</ele>
        <time>2019-11-24T09:41:54Z</time>
      </trkpt>
      <trkpt lat="42.811438" lon="0.632797">
        <ele>972.8</ele>
        <time>2019-11-24T09:42:08Z</time>
      </trkpt>
      <trkpt lat="42.811395" lon="0.632956">
        <ele>972.8</ele>
        <time>2019-11-24T09:42:23Z</time>
      </trkpt>
      <trkpt lat="42.811378" lon="0.633088">
        <ele>975.2</ele>
        <time>2019-11-24T09:42:35Z</time>
      </trkpt>
      <trkpt lat="42.811419" lon="0.633214">
        <ele>976.0</ele>
        <time>2019-11-24T09:42:47Z</time>
      </trkpt>
      <trkpt lat="42.811432" lon="0.633358">
        <ele>976.0</ele>
        <time>2019-11-24T09:42:58Z</time>
      </trkpt>
      <trkpt lat="42.811441" lon="0.633509">
        <ele>973.8</ele>
        <time>2019-11-24T09:43:12Z</time>
      </trkpt>
      <trkpt lat="42.811480" lon="0.633607">
        <ele>972.8</ele>
        <time>2019-11-24T09:43:23Z</time>
      </trkpt>
      <trkpt lat="42.811545" lon="0.633706">
        <ele>971.9</ele>
        <time>2019-11-24T09:43:33Z</time>
      </trkpt>
      <trkpt lat="42.811574" lon="0.633832">
        <ele>971.1</ele>
        <time>2019-11-24T09:43:48Z</time>
      </trkpt>
      <trkpt lat="42.811581" lon="0.633964">
        <ele>970.1</ele>
        <time>2019-11-24T09:44:07Z</time>
      </trkpt>
      <trkpt lat="42.811664" lon="0.634013">
        <ele>970.1</ele>
        <time>2019-11-24T09:44:28Z</time>
      </trkpt>
      <trkpt lat="42.811693" lon="0.634137">
        <ele>975.2</ele>
        <time>2019-11-24T09:44:48Z</time>
      </trkpt>
      <trkpt lat="42.811738" lon="0.634189">
        <ele>972.2</ele>
        <time>2019-11-24T09:45:17Z</time>
      </trkpt>
      <trkpt lat="42.811815" lon="0.634239">
        <ele>972.1</ele>
        <time>2019-11-24T09:45:37Z</time>
      </trkpt>
      <trkpt lat="42.811804" lon="0.634392">
        <ele>974.6</ele>
        <time>2019-11-24T09:45:54Z</time>
      </trkpt>
      <trkpt lat="42.811854" lon="0.634492">
        <ele>974.6</ele>
        <time>2019-11-24T09:46:07Z</time>
      </trkpt>
      <trkpt lat="42.811874" lon="0.634605">
        <ele>975.5</ele>
        <time>2019-11-24T09:46:19Z</time>
      </trkpt>
      <trkpt lat="42.811877" lon="0.634818">
        <ele>977.1</ele>
        <time>2019-11-24T09:46:35Z</time>
      </trkpt>
      <trkpt lat="42.811834" lon="0.634978">
        <ele>977.1</ele>
        <time>2019-11-24T09:46:53Z</time>
      </trkpt>
      <trkpt lat="42.811894" lon="0.635104">
        <ele>977.0</ele>
        <time>2019-11-24T09:47:06Z</time>
      </trkpt>
      <trkpt lat="42.811982" lon="0.635154">
        <ele>975.3</ele>
        <time>2019-11-24T09:47:25Z</time>
      </trkpt>
      <trkpt lat="42.811933" lon="0.635271">
        <ele>975.3</ele>
        <time>2019-11-24T09:47:38Z</time>
      </trkpt>
      <trkpt lat="42.812018" lon="0.635328">
        <ele>975.3</ele>
        <time>2019-11-24T09:47:52Z</time>
      </trkpt>
      <trkpt lat="42.812137" lon="0.635370">
        <ele>975.2</ele>
        <time>2019-11-24T09:48:08Z</time>
      </trkpt>
      <trkpt lat="42.812170" lon="0.635535">
        <ele>964.6</ele>
        <time>2019-11-24T09:48:43Z</time>
      </trkpt>
      <trkpt lat="42.812078" lon="0.635612">
        <ele>962.0</ele>
        <time>2019-11-24T09:49:12Z</time>
      </trkpt>
      <trkpt lat="42.812003" lon="0.635637">
        <ele>960.4</ele>
        <time>2019-11-24T09:51:24Z</time>
      </trkpt>
      <trkpt lat="42.812045" lon="0.635722">
        <ele>958.9</ele>
        <time>2019-11-24T09:51:42Z</time>
      </trkpt>
      <trkpt lat="42.812059" lon="0.635790">
        <ele>955.6</ele>
        <time>2019-11-24T09:52:38Z</time>
      </trkpt>
      <trkpt lat="42.812068" lon="0.635860">
        <ele>952.4</ele>
        <time>2019-11-24T09:55:18Z</time>
      </trkpt>
      <trkpt lat="42.812036" lon="0.635868">
        <ele>952.5</ele>
        <time>2019-11-24T09:55:33Z</time>
      </trkpt>
      <trkpt lat="42.811983" lon="0.635940">
        <ele>952.7</ele>
        <time>2019-11-24T09:55:52Z</time>
      </trkpt>
      <trkpt lat="42.812002" lon="0.636024">
        <ele>952.9</ele>
        <time>2019-11-24T09:56:13Z</time>
      </trkpt>
      <trkpt lat="42.812028" lon="0.636059">
        <ele>953.5</ele>
        <time>2019-11-24T09:57:44Z</time>
      </trkpt>
      <trkpt lat="42.812104" lon="0.636138">
        <ele>955.2</ele>
        <time>2019-11-24T09:58:05Z</time>
      </trkpt>
      <trkpt lat="42.812142" lon="0.636243">
        <ele>957.0</ele>
        <time>2019-11-24T09:58:22Z</time>
      </trkpt>
      <trkpt lat="42.812209" lon="0.636259">
        <ele>958.8</ele>
        <time>2019-11-24T09:58:39Z</time>
      </trkpt>
      <trkpt lat="42.812307" lon="0.636289">
        <ele>962.5</ele>
        <time>2019-11-24T09:58:59Z</time>
      </trkpt>
      <trkpt lat="42.812369" lon="0.636380">
        <ele>966.3</ele>
        <time>2019-11-24T09:59:14Z</time>
      </trkpt>
      <trkpt lat="42.812605" lon="0.636612">
        <ele>974.2</ele>
        <time>2019-11-24T10:00:18Z</time>
      </trkpt>
      <trkpt lat="42.812641" lon="0.636689">
        <ele>977.9</ele>
        <time>2019-11-24T10:00:34Z</time>
      </trkpt>
      <trkpt lat="42.812838" lon="0.636762">
        <ele>989.3</ele>
        <time>2019-11-24T10:02:03Z</time>
      </trkpt>
      <trkpt lat="42.812953" lon="0.636829">
        <ele>992.7</ele>
        <time>2019-11-24T10:02:21Z</time>
      </trkpt>
      <trkpt lat="42.813035" lon="0.636915">
        <ele>996.1</ele>
        <time>2019-11-24T10:02:41Z</time>
      </trkpt>
      <trkpt lat="42.813090" lon="0.637074">
        <ele>998.7</ele>
        <time>2019-11-24T10:02:59Z</time>
      </trkpt>
      <trkpt lat="42.813110" lon="0.637216">
        <ele>1002.2</ele>
        <time>2019-11-24T10:03:15Z</time>
      </trkpt>
      <trkpt lat="42.813149" lon="0.637390">
        <ele>1005.7</ele>
        <time>2019-11-24T10:03:34Z</time>
      </trkpt>
      <trkpt lat="42.813188" lon="0.637554">
        <ele>1008.1</ele>
        <time>2019-11-24T10:03:51Z</time>
      </trkpt>
      <trkpt lat="42.813153" lon="0.637722">
        <ele>1009.7</ele>
        <time>2019-11-24T10:04:10Z</time>
      </trkpt>
      <trkpt lat="42.813152" lon="0.637871">
        <ele>1010.5</ele>
        <time>2019-11-24T10:04:24Z</time>
      </trkpt>
      <trkpt lat="42.813152" lon="0.638073">
        <ele>1011.2</ele>
        <time>2019-11-24T10:04:43Z</time>
      </trkpt>
      <trkpt lat="42.813186" lon="0.638230">
        <ele>1012.8</ele>
        <time>2019-11-24T10:04:57Z</time>
      </trkpt>
      <trkpt lat="42.812974" lon="0.638635">
        <ele>1026.4</ele>
        <time>2019-11-24T10:10:09Z</time>
      </trkpt>
      <trkpt lat="42.812890" lon="0.638673">
        <ele>1027.9</ele>
        <time>2019-11-24T10:10:31Z</time>
      </trkpt>
      <trkpt lat="42.812873" lon="0.638798">
        <ele>1032.2</ele>
        <time>2019-11-24T10:10:49Z</time>
      </trkpt>
      <trkpt lat="42.812804" lon="0.638922">
        <ele>1035.3</ele>
        <time>2019-11-24T10:11:09Z</time>
      </trkpt>
      <trkpt lat="42.812713" lon="0.639014">
        <ele>1038.6</ele>
        <time>2019-11-24T10:11:28Z</time>
      </trkpt>
      <trkpt lat="42.812630" lon="0.639146">
        <ele>1041.9</ele>
        <time>2019-11-24T10:11:49Z</time>
      </trkpt>
      <trkpt lat="42.812528" lon="0.639208">
        <ele>1044.3</ele>
        <time>2019-11-24T10:12:04Z</time>
      </trkpt>
      <trkpt lat="42.812475" lon="0.639349">
        <ele>1047.4</ele>
        <time>2019-11-24T10:12:25Z</time>
      </trkpt>
      <trkpt lat="42.812403" lon="0.639421">
        <ele>1049.5</ele>
        <time>2019-11-24T10:12:44Z</time>
      </trkpt>
      <trkpt lat="42.812379" lon="0.639548">
        <ele>1050.9</ele>
        <time>2019-11-24T10:13:02Z</time>
      </trkpt>
      <trkpt lat="42.812328" lon="0.639639">
        <ele>1053.3</ele>
        <time>2019-11-24T10:13:19Z</time>
      </trkpt>
      <trkpt lat="42.812249" lon="0.639707">
        <ele>1056.6</ele>
        <time>2019-11-24T10:13:37Z</time>
      </trkpt>
      <trkpt lat="42.812195" lon="0.639840">
        <ele>1059.0</ele>
        <time>2019-11-24T10:13:53Z</time>
      </trkpt>
      <trkpt lat="42.812132" lon="0.639952">
        <ele>1061.4</ele>
        <time>2019-11-24T10:14:10Z</time>
      </trkpt>
      <trkpt lat="42.812093" lon="0.640037">
        <ele>1063.7</ele>
        <time>2019-11-24T10:14:23Z</time>
      </trkpt>
      <trkpt lat="42.812028" lon="0.640138">
        <ele>1066.5</ele>
        <time>2019-11-24T10:14:40Z</time>
      </trkpt>
      <trkpt lat="42.811993" lon="0.640169">
        <ele>1065.8</ele>
        <time>2019-11-24T10:19:18Z</time>
      </trkpt>
      <trkpt lat="42.811911" lon="0.640269">
        <ele>1070.6</ele>
        <time>2019-11-24T10:19:36Z</time>
      </trkpt>
      <trkpt lat="42.811846" lon="0.640357">
        <ele>1075.2</ele>
        <time>2019-11-24T10:19:52Z</time>
      </trkpt>
      <trkpt lat="42.811808" lon="0.640467">
        <ele>1078.5</ele>
        <time>2019-11-24T10:20:09Z</time>
      </trkpt>
      <trkpt lat="42.811761" lon="0.640603">
        <ele>1081.1</ele>
        <time>2019-11-24T10:20:25Z</time>
      </trkpt>
      <trkpt lat="42.811755" lon="0.640960">
        <ele>1084.6</ele>
        <time>2019-11-24T10:21:03Z</time>
      </trkpt>
      <trkpt lat="42.811677" lon="0.641061">
        <ele>1088.0</ele>
        <time>2019-11-24T10:21:24Z</time>
      </trkpt>
      <trkpt lat="42.811606" lon="0.641116">
        <ele>1091.7</ele>
        <time>2019-11-24T10:21:47Z</time>
      </trkpt>
      <trkpt lat="42.811527" lon="0.641202">
        <ele>1094.4</ele>
        <time>2019-11-24T10:22:03Z</time>
      </trkpt>
      <trkpt lat="42.811409" lon="0.641268">
        <ele>1097.6</ele>
        <time>2019-11-24T10:22:25Z</time>
      </trkpt>
      <trkpt lat="42.811329" lon="0.641223">
        <ele>1100.7</ele>
        <time>2019-11-24T10:22:48Z</time>
      </trkpt>
      <trkpt lat="42.811253" lon="0.641233">
        <ele>1105.0</ele>
        <time>2019-11-24T10:23:12Z</time>
      </trkpt>
      <trkpt lat="42.811217" lon="0.641149">
        <ele>1112.3</ele>
        <time>2019-11-24T10:24:05Z</time>
      </trkpt>
      <trkpt lat="42.811211" lon="0.641082">
        <ele>1113.8</ele>
        <time>2019-11-24T10:24:39Z</time>
      </trkpt>
      <trkpt lat="42.811189" lon="0.640963">
        <ele>1117.7</ele>
        <time>2019-11-24T10:25:02Z</time>
      </trkpt>
      <trkpt lat="42.811120" lon="0.640908">
        <ele>1120.0</ele>
        <time>2019-11-24T10:25:22Z</time>
      </trkpt>
      <trkpt lat="42.811040" lon="0.640925">
        <ele>1124.1</ele>
        <time>2019-11-24T10:25:47Z</time>
      </trkpt>
      <trkpt lat="42.810962" lon="0.640961">
        <ele>1128.2</ele>
        <time>2019-11-24T10:26:14Z</time>
      </trkpt>
      <trkpt lat="42.810906" lon="0.641012">
        <ele>1132.5</ele>
        <time>2019-11-24T10:26:35Z</time>
      </trkpt>
      <trkpt lat="42.810854" lon="0.641152">
        <ele>1109.0</ele>
        <time>2019-11-24T10:27:00Z</time>
      </trkpt>
      <trkpt lat="42.810783" lon="0.641333">
        <ele>1112.6</ele>
        <time>2019-11-24T10:27:34Z</time>
      </trkpt>
      <trkpt lat="42.810718" lon="0.641485">
        <ele>1116.2</ele>
        <time>2019-11-24T10:29:34Z</time>
      </trkpt>
      <trkpt lat="42.810651" lon="0.641719">
        <ele>1119.0</ele>
        <time>2019-11-24T10:30:01Z</time>
      </trkpt>
      <trkpt lat="42.810542" lon="0.641968">
        <ele>1123.1</ele>
        <time>2019-11-24T10:30:07Z</time>
      </trkpt>
      <trkpt lat="42.810474" lon="0.642167">
        <ele>1124.9</ele>
        <time>2019-11-24T10:30:12Z</time>
      </trkpt>
      <trkpt lat="42.810455" lon="0.642183">
        <ele>1125.8</ele>
        <time>2019-11-24T10:30:12Z</time>
      </trkpt>
      <trkpt lat="42.810420" lon="0.642237">
        <ele>1127.1</ele>
        <time>2019-11-24T10:30:14Z</time>
      </trkpt>
      <trkpt lat="42.810396" lon="0.642144">
        <ele>1129.4</ele>
        <time>2019-11-24T10:30:16Z</time>
      </trkpt>
      <trkpt lat="42.810403" lon="0.641894">
        <ele>1132.1</ele>
        <time>2019-11-24T10:30:22Z</time>
      </trkpt>
      <trkpt lat="42.810396" lon="0.641518">
        <ele>1137.1</ele>
        <time>2019-11-24T10:31:13Z</time>
      </trkpt>
      <trkpt lat="42.810375" lon="0.641293">
        <ele>1141.2</ele>
        <time>2019-11-24T10:40:56Z</time>
      </trkpt>
      <trkpt lat="42.810330" lon="0.641074">
        <ele>1184.5</ele>
        <time>2019-11-24T10:41:12Z</time>
      </trkpt>
      <trkpt lat="42.810321" lon="0.641004">
        <ele>1186.2</ele>
        <time>2019-11-24T10:41:47Z</time>
      </trkpt>
      <trkpt lat="42.810287" lon="0.640971">
        <ele>1186.3</ele>
        <time>2019-11-24T10:42:16Z</time>
      </trkpt>
      <trkpt lat="42.810291" lon="0.640844">
        <ele>1187.3</ele>
        <time>2019-11-24T10:42:40Z</time>
      </trkpt>
      <trkpt lat="42.810204" lon="0.640617">
        <ele>1194.5</ele>
        <time>2019-11-24T10:43:57Z</time>
      </trkpt>
      <trkpt lat="42.810196" lon="0.640636">
        <ele>1198.1</ele>
        <time>2019-11-24T10:44:19Z</time>
      </trkpt>
      <trkpt lat="42.810117" lon="0.640641">
        <ele>1200.8</ele>
        <time>2019-11-24T10:44:42Z</time>
      </trkpt>
      <trkpt lat="42.810026" lon="0.640672">
        <ele>1206.6</ele>
        <time>2019-11-24T10:45:09Z</time>
      </trkpt>
      <trkpt lat="42.809939" lon="0.640597">
        <ele>1210.4</ele>
        <time>2019-11-24T10:45:32Z</time>
      </trkpt>
      <trkpt lat="42.809872" lon="0.640491">
        <ele>1212.8</ele>
        <time>2019-11-24T10:45:54Z</time>
      </trkpt>
      <trkpt lat="42.809800" lon="0.640508">
        <ele>1216.9</ele>
        <time>2019-11-24T10:46:19Z</time>
      </trkpt>
      <trkpt lat="42.809732" lon="0.640621">
        <ele>1219.9</ele>
        <time>2019-11-24T10:46:39Z</time>
      </trkpt>
      <trkpt lat="42.809646" lon="0.640724">
        <ele>1222.2</ele>
        <time>2019-11-24T10:46:55Z</time>
      </trkpt>
      <trkpt lat="42.809593" lon="0.640747">
        <ele>1224.7</ele>
        <time>2019-11-24T10:47:16Z</time>
      </trkpt>
      <trkpt lat="42.809482" lon="0.640861">
        <ele>1230.2</ele>
        <time>2019-11-24T10:47:58Z</time>
      </trkpt>
      <trkpt lat="42.809324" lon="0.640901">
        <ele>1244.1</ele>
        <time>2019-11-24T10:49:33Z</time>
      </trkpt>
      <trkpt lat="42.809260" lon="0.640885">
        <ele>1247.3</ele>
        <time>2019-11-24T10:49:52Z</time>
      </trkpt>
      <trkpt lat="42.809179" lon="0.640920">
        <ele>1253.5</ele>
        <time>2019-11-24T10:50:41Z</time>
      </trkpt>
      <trkpt lat="42.809083" lon="0.640965">
        <ele>1255.6</ele>
        <time>2019-11-24T10:50:55Z</time>
      </trkpt>
      <trkpt lat="42.809036" lon="0.640991">
        <ele>1256.2</ele>
        <time>2019-11-24T10:51:06Z</time>
      </trkpt>
      <trkpt lat="42.808977" lon="0.641028">
        <ele>1258.6</ele>
        <time>2019-11-24T10:51:19Z</time>
      </trkpt>
      <trkpt lat="42.808910" lon="0.641097">
        <ele>1261.6</ele>
        <time>2019-11-24T10:51:34Z</time>
      </trkpt>
      <trkpt lat="42.808835" lon="0.641126">
        <ele>1262.1</ele>
        <time>2019-11-24T10:51:50Z</time>
      </trkpt>
      <trkpt lat="42.808799" lon="0.641116">
        <ele>1262.7</ele>
        <time>2019-11-24T10:52:08Z</time>
      </trkpt>
      <trkpt lat="42.808758" lon="0.641061">
        <ele>1264.1</ele>
        <time>2019-11-24T10:52:26Z</time>
      </trkpt>
      <trkpt lat="42.808701" lon="0.640942">
        <ele>1267.3</ele>
        <time>2019-11-24T10:52:46Z</time>
      </trkpt>
      <trkpt lat="42.808587" lon="0.640829">
        <ele>1267.8</ele>
        <time>2019-11-24T10:53:00Z</time>
      </trkpt>
      <trkpt lat="42.808482" lon="0.640788">
        <ele>1269.4</ele>
        <time>2019-11-24T10:53:15Z</time>
      </trkpt>
      <trkpt lat="42.808367" lon="0.640708">
        <ele>1270.9</ele>
        <time>2019-11-24T10:53:30Z</time>
      </trkpt>
      <trkpt lat="42.808255" lon="0.640642">
        <ele>1272.4</ele>
        <time>2019-11-24T10:53:45Z</time>
      </trkpt>
      <trkpt lat="42.808157" lon="0.640534">
        <ele>1274.6</ele>
        <time>2019-11-24T10:54:00Z</time>
      </trkpt>
      <trkpt lat="42.808027" lon="0.640420">
        <ele>1276.3</ele>
        <time>2019-11-24T10:54:15Z</time>
      </trkpt>
      <trkpt lat="42.807911" lon="0.640348">
        <ele>1278.6</ele>
        <time>2019-11-24T10:54:30Z</time>
      </trkpt>
      <trkpt lat="42.807816" lon="0.640153">
        <ele>1280.8</ele>
        <time>2019-11-24T10:54:44Z</time>
      </trkpt>
      <trkpt lat="42.807731" lon="0.640033">
        <ele>1282.8</ele>
        <time>2019-11-24T10:55:00Z</time>
      </trkpt>
      <trkpt lat="42.807583" lon="0.639963">
        <ele>1282.6</ele>
        <time>2019-11-24T10:55:16Z</time>
      </trkpt>
      <trkpt lat="42.807505" lon="0.639771">
        <ele>1284.1</ele>
        <time>2019-11-24T10:55:32Z</time>
      </trkpt>
      <trkpt lat="42.807449" lon="0.639573">
        <ele>1286.4</ele>
        <time>2019-11-24T10:55:48Z</time>
      </trkpt>
      <trkpt lat="42.807408" lon="0.639268">
        <ele>1288.8</ele>
        <time>2019-11-24T10:56:01Z</time>
      </trkpt>
      <trkpt lat="42.807370" lon="0.639102">
        <ele>1290.3</ele>
        <time>2019-11-24T10:56:15Z</time>
      </trkpt>
      <trkpt lat="42.807342" lon="0.638944">
        <ele>1292.6</ele>
        <time>2019-11-24T10:56:31Z</time>
      </trkpt>
      <trkpt lat="42.807304" lon="0.638831">
        <ele>1294.1</ele>
        <time>2019-11-24T10:56:44Z</time>
      </trkpt>
      <trkpt lat="42.807232" lon="0.638754">
        <ele>1296.5</ele>
        <time>2019-11-24T10:56:58Z</time>
      </trkpt>
      <trkpt lat="42.807149" lon="0.638690">
        <ele>1300.1</ele>
        <time>2019-11-24T10:57:14Z</time>
      </trkpt>
      <trkpt lat="42.807037" lon="0.638659">
        <ele>1302.8</ele>
        <time>2019-11-24T10:57:32Z</time>
      </trkpt>
      <trkpt lat="42.806907" lon="0.638625">
        <ele>1305.2</ele>
        <time>2019-11-24T10:57:48Z</time>
      </trkpt>
      <trkpt lat="42.806787" lon="0.638592">
        <ele>1308.6</ele>
        <time>2019-11-24T10:58:06Z</time>
      </trkpt>
      <trkpt lat="42.806633" lon="0.638619">
        <ele>1310.8</ele>
        <time>2019-11-24T10:58:26Z</time>
      </trkpt>
      <trkpt lat="42.806519" lon="0.638590">
        <ele>1312.5</ele>
        <time>2019-11-24T10:58:38Z</time>
      </trkpt>
      <trkpt lat="42.806218" lon="0.638451">
        <ele>1315.9</ele>
        <time>2019-11-24T11:02:57Z</time>
      </trkpt>
      <trkpt lat="42.806185" lon="0.638509">
        <ele>1315.0</ele>
        <time>2019-11-24T11:03:27Z</time>
      </trkpt>
      <trkpt lat="42.806290" lon="0.638581">
        <ele>1314.2</ele>
        <time>2019-11-24T11:03:45Z</time>
      </trkpt>
      <trkpt lat="42.806403" lon="0.638631">
        <ele>1316.4</ele>
        <time>2019-11-24T11:04:03Z</time>
      </trkpt>
      <trkpt lat="42.806541" lon="0.638688">
        <ele>1318.3</ele>
        <time>2019-11-24T11:04:18Z</time>
      </trkpt>
      <trkpt lat="42.806631" lon="0.638739">
        <ele>1320.5</ele>
        <time>2019-11-24T11:04:39Z</time>
      </trkpt>
      <trkpt lat="42.806751" lon="0.638878">
        <ele>1322.2</ele>
        <time>2019-11-24T11:04:53Z</time>
      </trkpt>
      <trkpt lat="42.806833" lon="0.638988">
        <ele>1323.8</ele>
        <time>2019-11-24T11:05:06Z</time>
      </trkpt>
      <trkpt lat="42.806914" lon="0.639099">
        <ele>1325.8</ele>
        <time>2019-11-24T11:05:20Z</time>
      </trkpt>
      <trkpt lat="42.807007" lon="0.639209">
        <ele>1327.3</ele>
        <time>2019-11-24T11:05:32Z</time>
      </trkpt>
      <trkpt lat="42.807045" lon="0.639351">
        <ele>1329.7</ele>
        <time>2019-11-24T11:05:53Z</time>
      </trkpt>
      <trkpt lat="42.806980" lon="0.639486">
        <ele>1331.6</ele>
        <time>2019-11-24T11:08:26Z</time>
      </trkpt>
      <trkpt lat="42.806982" lon="0.639676">
        <ele>1333.8</ele>
        <time>2019-11-24T11:08:42Z</time>
      </trkpt>
      <trkpt lat="42.806961" lon="0.639943">
        <ele>1337.2</ele>
        <time>2019-11-24T11:08:57Z</time>
      </trkpt>
      <trkpt lat="42.806899" lon="0.640092">
        <ele>1338.7</ele>
        <time>2019-11-24T11:09:11Z</time>
      </trkpt>
      <trkpt lat="42.806853" lon="0.640226">
        <ele>1341.1</ele>
        <time>2019-11-24T11:09:29Z</time>
      </trkpt>
      <trkpt lat="42.806857" lon="0.640381">
        <ele>1343.7</ele>
        <time>2019-11-24T11:09:47Z</time>
      </trkpt>
      <trkpt lat="42.806882" lon="0.640528">
        <ele>1345.1</ele>
        <time>2019-11-24T11:10:05Z</time>
      </trkpt>
      <trkpt lat="42.806924" lon="0.640697">
        <ele>1346.2</ele>
        <time>2019-11-24T11:10:25Z</time>
      </trkpt>
      <trkpt lat="42.806967" lon="0.640862">
        <ele>1348.8</ele>
        <time>2019-11-24T11:10:48Z</time>
      </trkpt>
      <trkpt lat="42.807005" lon="0.641038">
        <ele>1350.1</ele>
        <time>2019-11-24T11:11:05Z</time>
      </trkpt>
      <trkpt lat="42.807002" lon="0.641192">
        <ele>1351.4</ele>
        <time>2019-11-24T11:11:21Z</time>
      </trkpt>
      <trkpt lat="42.806996" lon="0.641266">
        <ele>1355.5</ele>
        <time>2019-11-24T11:12:14Z</time>
      </trkpt>
      <trkpt lat="42.806903" lon="0.641158">
        <ele>1357.6</ele>
        <time>2019-11-24T11:12:30Z</time>
      </trkpt>
      <trkpt lat="42.806826" lon="0.641033">
        <ele>1360.7</ele>
        <time>2019-11-24T11:12:45Z</time>
      </trkpt>
      <trkpt lat="42.806766" lon="0.640876">
        <ele>1361.8</ele>
        <time>2019-11-24T11:13:00Z</time>
      </trkpt>
      <trkpt lat="42.806714" lon="0.640737">
        <ele>1362.3</ele>
        <time>2019-11-24T11:13:14Z</time>
      </trkpt>
      <trkpt lat="42.806647" lon="0.640650">
        <ele>1363.6</ele>
        <time>2019-11-24T11:13:31Z</time>
      </trkpt>
      <trkpt lat="42.806546" lon="0.640566">
        <ele>1365.4</ele>
        <time>2019-11-24T11:13:53Z</time>
      </trkpt>
      <trkpt lat="42.806421" lon="0.640463">
        <ele>1366.7</ele>
        <time>2019-11-24T11:14:09Z</time>
      </trkpt>
      <trkpt lat="42.806306" lon="0.640360">
        <ele>1368.6</ele>
        <time>2019-11-24T11:14:31Z</time>
      </trkpt>
      <trkpt lat="42.806179" lon="0.640203">
        <ele>1369.9</ele>
        <time>2019-11-24T11:14:47Z</time>
      </trkpt>
      <trkpt lat="42.806087" lon="0.640113">
        <ele>1372.7</ele>
        <time>2019-11-24T11:15:03Z</time>
      </trkpt>
      <trkpt lat="42.806015" lon="0.640063">
        <ele>1373.2</ele>
        <time>2019-11-24T11:15:20Z</time>
      </trkpt>
      <trkpt lat="42.805889" lon="0.640032">
        <ele>1374.4</ele>
        <time>2019-11-24T11:15:34Z</time>
      </trkpt>
      <trkpt lat="42.805835" lon="0.640020">
        <ele>1377.0</ele>
        <time>2019-11-24T11:15:55Z</time>
      </trkpt>
      <trkpt lat="42.805651" lon="0.640093">
        <ele>1376.2</ele>
        <time>2019-11-24T11:16:18Z</time>
      </trkpt>
      <trkpt lat="42.805604" lon="0.640132">
        <ele>1377.5</ele>
        <time>2019-11-24T11:16:43Z</time>
      </trkpt>
      <trkpt lat="42.805564" lon="0.640134">
        <ele>1374.6</ele>
        <time>2019-11-24T11:17:03Z</time>
      </trkpt>
      <trkpt lat="42.805510" lon="0.640116">
        <ele>1376.4</ele>
        <time>2019-11-24T11:17:22Z</time>
      </trkpt>
      <trkpt lat="42.805410" lon="0.640028">
        <ele>1378.4</ele>
        <time>2019-11-24T11:17:42Z</time>
      </trkpt>
      <trkpt lat="42.805334" lon="0.640012">
        <ele>1379.7</ele>
        <time>2019-11-24T11:18:03Z</time>
      </trkpt>
      <trkpt lat="42.805319" lon="0.640043">
        <ele>1392.9</ele>
        <time>2019-11-24T11:21:43Z</time>
      </trkpt>
      <trkpt lat="42.805321" lon="0.640125">
        <ele>1395.3</ele>
        <time>2019-11-24T11:22:03Z</time>
      </trkpt>
      <trkpt lat="42.805327" lon="0.640137">
        <ele>1398.7</ele>
        <time>2019-11-24T11:22:44Z</time>
      </trkpt>
      <trkpt lat="42.805288" lon="0.640232">
        <ele>1400.0</ele>
        <time>2019-11-24T11:23:07Z</time>
      </trkpt>
      <trkpt lat="42.805246" lon="0.640232">
        <ele>1408.0</ele>
        <time>2019-11-24T11:24:40Z</time>
      </trkpt>
      <trkpt lat="42.805193" lon="0.640238">
        <ele>1412.9</ele>
        <time>2019-11-24T11:25:10Z</time>
      </trkpt>
      <trkpt lat="42.805124" lon="0.640265">
        <ele>1428.3</ele>
        <time>2019-11-24T11:28:55Z</time>
      </trkpt>
      <trkpt lat="42.805018" lon="0.640203">
        <ele>1428.4</ele>
        <time>2019-11-24T11:29:10Z</time>
      </trkpt>
      <trkpt lat="42.804935" lon="0.640191">
        <ele>1429.4</ele>
        <time>2019-11-24T11:29:23Z</time>
      </trkpt>
      <trkpt lat="42.804914" lon="0.640292">
        <ele>1434.8</ele>
        <time>2019-11-24T11:31:01Z</time>
      </trkpt>
      <trkpt lat="42.804970" lon="0.640375">
        <ele>1438.5</ele>
        <time>2019-11-24T11:31:21Z</time>
      </trkpt>
      <trkpt lat="42.805037" lon="0.640464">
        <ele>1442.5</ele>
        <time>2019-11-24T11:31:40Z</time>
      </trkpt>
      <trkpt lat="42.805029" lon="0.640581">
        <ele>1446.7</ele>
        <time>2019-11-24T11:32:03Z</time>
      </trkpt>
      <trkpt lat="42.805069" lon="0.640682">
        <ele>1451.3</ele>
        <time>2019-11-24T11:32:26Z</time>
      </trkpt>
      <trkpt lat="42.805084" lon="0.640807">
        <ele>1454.8</ele>
        <time>2019-11-24T11:32:47Z</time>
      </trkpt>
      <trkpt lat="42.805000" lon="0.640909">
        <ele>1457.7</ele>
        <time>2019-11-24T11:33:09Z</time>
      </trkpt>
      <trkpt lat="42.804897" lon="0.640887">
        <ele>1460.6</ele>
        <time>2019-11-24T11:33:28Z</time>
      </trkpt>
      <trkpt lat="42.804828" lon="0.640960">
        <ele>1465.1</ele>
        <time>2019-11-24T11:33:49Z</time>
      </trkpt>
      <trkpt lat="42.804736" lon="0.641021">
        <ele>1469.5</ele>
        <time>2019-11-24T11:34:10Z</time>
      </trkpt>
      <trkpt lat="42.804638" lon="0.641058">
        <ele>1473.1</ele>
        <time>2019-11-24T11:34:32Z</time>
      </trkpt>
      <trkpt lat="42.804544" lon="0.641085">
        <ele>1476.5</ele>
        <time>2019-11-24T11:34:52Z</time>
      </trkpt>
      <trkpt lat="42.804513" lon="0.641160">
        <ele>1478.7</ele>
        <time>2019-11-24T11:35:17Z</time>
      </trkpt>
      <trkpt lat="42.804529" lon="0.641262">
        <ele>1482.1</ele>
        <time>2019-11-24T11:35:39Z</time>
      </trkpt>
      <trkpt lat="42.804482" lon="0.641340">
        <ele>1484.9</ele>
        <time>2019-11-24T11:36:01Z</time>
      </trkpt>
      <trkpt lat="42.804461" lon="0.641448">
        <ele>1489.5</ele>
        <time>2019-11-24T11:36:24Z</time>
      </trkpt>
      <trkpt lat="42.804420" lon="0.641502">
        <ele>1494.1</ele>
        <time>2019-11-24T11:36:52Z</time>
      </trkpt>
      <trkpt lat="42.804412" lon="0.641601">
        <ele>1496.7</ele>
        <time>2019-11-24T11:37:16Z</time>
      </trkpt>
      <trkpt lat="42.804394" lon="0.641692">
        <ele>1499.2</ele>
        <time>2019-11-24T11:37:34Z</time>
      </trkpt>
      <trkpt lat="42.804380" lon="0.641816">
        <ele>1503.7</ele>
        <time>2019-11-24T11:37:57Z</time>
      </trkpt>
      <trkpt lat="42.804423" lon="0.641919">
        <ele>1506.2</ele>
        <time>2019-11-24T11:38:18Z</time>
      </trkpt>
      <trkpt lat="42.804441" lon="0.642040">
        <ele>1509.6</ele>
        <time>2019-11-24T11:38:36Z</time>
      </trkpt>
      <trkpt lat="42.804419" lon="0.642116">
        <ele>1513.1</ele>
        <time>2019-11-24T11:39:01Z</time>
      </trkpt>
      <trkpt lat="42.804374" lon="0.642207">
        <ele>1515.4</ele>
        <time>2019-11-24T11:39:25Z</time>
      </trkpt>
      <trkpt lat="42.804382" lon="0.642322">
        <ele>1518.9</ele>
        <time>2019-11-24T11:39:46Z</time>
      </trkpt>
      <trkpt lat="42.804346" lon="0.642437">
        <ele>1523.1</ele>
        <time>2019-11-24T11:40:13Z</time>
      </trkpt>
      <trkpt lat="42.804360" lon="0.642507">
        <ele>1526.6</ele>
        <time>2019-11-24T11:40:41Z</time>
      </trkpt>
      <trkpt lat="42.804309" lon="0.642620">
        <ele>1527.3</ele>
        <time>2019-11-24T11:40:58Z</time>
      </trkpt>
      <trkpt lat="42.804299" lon="0.642744">
        <ele>1530.7</ele>
        <time>2019-11-24T11:41:18Z</time>
      </trkpt>
      <trkpt lat="42.804313" lon="0.642820">
        <ele>1542.5</ele>
        <time>2019-11-24T11:42:38Z</time>
      </trkpt>
      <trkpt lat="42.804340" lon="0.642935">
        <ele>1546.5</ele>
        <time>2019-11-24T11:43:02Z</time>
      </trkpt>
      <trkpt lat="42.804359" lon="0.643032">
        <ele>1550.9</ele>
        <time>2019-11-24T11:43:28Z</time>
      </trkpt>
      <trkpt lat="42.804405" lon="0.643136">
        <ele>1554.2</ele>
        <time>2019-11-24T11:43:54Z</time>
      </trkpt>
      <trkpt lat="42.804393" lon="0.643257">
        <ele>1557.7</ele>
        <time>2019-11-24T11:44:20Z</time>
      </trkpt>
      <trkpt lat="42.804436" lon="0.643371">
        <ele>1560.9</ele>
        <time>2019-11-24T11:44:46Z</time>
      </trkpt>
      <trkpt lat="42.804421" lon="0.643482">
        <ele>1563.7</ele>
        <time>2019-11-24T11:45:16Z</time>
      </trkpt>
      <trkpt lat="42.804318" lon="0.643561">
        <ele>1566.1</ele>
        <time>2019-11-24T11:45:38Z</time>
      </trkpt>
      <trkpt lat="42.804303" lon="0.643716">
        <ele>1567.7</ele>
        <time>2019-11-24T11:45:57Z</time>
      </trkpt>
      <trkpt lat="42.804238" lon="0.643754">
        <ele>1571.2</ele>
        <time>2019-11-24T11:46:22Z</time>
      </trkpt>
      <trkpt lat="42.804153" lon="0.643881">
        <ele>1573.7</ele>
        <time>2019-11-24T11:46:43Z</time>
      </trkpt>
      <trkpt lat="42.804082" lon="0.643987">
        <ele>1576.3</ele>
        <time>2019-11-24T11:47:04Z</time>
      </trkpt>
      <trkpt lat="42.804006" lon="0.644090">
        <ele>1580.2</ele>
        <time>2019-11-24T11:47:26Z</time>
      </trkpt>
      <trkpt lat="42.803998" lon="0.644113">
        <ele>1581.8</ele>
        <time>2019-11-24T11:48:17Z</time>
      </trkpt>
      <trkpt lat="42.803931" lon="0.644235">
        <ele>1583.6</ele>
        <time>2019-11-24T11:48:35Z</time>
      </trkpt>
      <trkpt lat="42.803894" lon="0.644359">
        <ele>1586.9</ele>
        <time>2019-11-24T11:48:54Z</time>
      </trkpt>
      <trkpt lat="42.803847" lon="0.644476">
        <ele>1590.2</ele>
        <time>2019-11-24T11:49:18Z</time>
      </trkpt>
      <trkpt lat="42.803777" lon="0.644572">
        <ele>1591.9</ele>
        <time>2019-11-24T11:49:40Z</time>
      </trkpt>
      <trkpt lat="42.803701" lon="0.644649">
        <ele>1592.9</ele>
        <time>2019-11-24T11:50:02Z</time>
      </trkpt>
      <trkpt lat="42.803624" lon="0.644688">
        <ele>1595.7</ele>
        <time>2019-11-24T11:50:34Z</time>
      </trkpt>
      <trkpt lat="42.803616" lon="0.644672">
        <ele>1605.4</ele>
        <time>2019-11-24T12:04:42Z</time>
      </trkpt>
      <trkpt lat="42.803608" lon="0.644769">
        <ele>1605.9</ele>
        <time>2019-11-24T12:05:51Z</time>
      </trkpt>
      <trkpt lat="42.803581" lon="0.644892">
        <ele>1607.6</ele>
        <time>2019-11-24T12:06:08Z</time>
      </trkpt>
      <trkpt lat="42.803512" lon="0.644998">
        <ele>1609.5</ele>
        <time>2019-11-24T12:06:25Z</time>
      </trkpt>
      <trkpt lat="42.803460" lon="0.645107">
        <ele>1610.6</ele>
        <time>2019-11-24T12:06:40Z</time>
      </trkpt>
      <trkpt lat="42.803424" lon="0.645253">
        <ele>1610.7</ele>
        <time>2019-11-24T12:06:56Z</time>
      </trkpt>
      <trkpt lat="42.803407" lon="0.645379">
        <ele>1612.5</ele>
        <time>2019-11-24T12:07:14Z</time>
      </trkpt>
      <trkpt lat="42.803366" lon="0.645484">
        <ele>1615.3</ele>
        <time>2019-11-24T12:07:34Z</time>
      </trkpt>
      <trkpt lat="42.803315" lon="0.645585">
        <ele>1617.2</ele>
        <time>2019-11-24T12:07:57Z</time>
      </trkpt>
      <trkpt lat="42.803268" lon="0.645709">
        <ele>1619.8</ele>
        <time>2019-11-24T12:08:12Z</time>
      </trkpt>
      <trkpt lat="42.803211" lon="0.645847">
        <ele>1621.7</ele>
        <time>2019-11-24T12:08:32Z</time>
      </trkpt>
      <trkpt lat="42.803155" lon="0.645963">
        <ele>1623.5</ele>
        <time>2019-11-24T12:08:51Z</time>
      </trkpt>
      <trkpt lat="42.803097" lon="0.646083">
        <ele>1624.5</ele>
        <time>2019-11-24T12:09:08Z</time>
      </trkpt>
      <trkpt lat="42.803033" lon="0.646178">
        <ele>1626.1</ele>
        <time>2019-11-24T12:09:24Z</time>
      </trkpt>
      <trkpt lat="42.802987" lon="0.646289">
        <ele>1627.0</ele>
        <time>2019-11-24T12:09:42Z</time>
      </trkpt>
      <trkpt lat="42.802931" lon="0.646387">
        <ele>1628.9</ele>
        <time>2019-11-24T12:09:57Z</time>
      </trkpt>
      <trkpt lat="42.802899" lon="0.646497">
        <ele>1631.7</ele>
        <time>2019-11-24T12:10:15Z</time>
      </trkpt>
      <trkpt lat="42.802849" lon="0.646621">
        <ele>1634.6</ele>
        <time>2019-11-24T12:10:36Z</time>
      </trkpt>
      <trkpt lat="42.802808" lon="0.646741">
        <ele>1638.0</ele>
        <time>2019-11-24T12:10:56Z</time>
      </trkpt>
      <trkpt lat="42.802781" lon="0.646859">
        <ele>1639.7</ele>
        <time>2019-11-24T12:11:14Z</time>
      </trkpt>
      <trkpt lat="42.802753" lon="0.646986">
        <ele>1641.7</ele>
        <time>2019-11-24T12:11:34Z</time>
      </trkpt>
      <trkpt lat="42.802703" lon="0.647088">
        <ele>1645.3</ele>
        <time>2019-11-24T12:12:00Z</time>
      </trkpt>
      <trkpt lat="42.802651" lon="0.647208">
        <ele>1648.0</ele>
        <time>2019-11-24T12:12:21Z</time>
      </trkpt>
      <trkpt lat="42.802648" lon="0.647266">
        <ele>1649.5</ele>
        <time>2019-11-24T12:14:18Z</time>
      </trkpt>
      <trkpt lat="42.802583" lon="0.647377">
        <ele>1651.1</ele>
        <time>2019-11-24T12:14:34Z</time>
      </trkpt>
      <trkpt lat="42.802544" lon="0.647492">
        <ele>1653.1</ele>
        <time>2019-11-24T12:14:51Z</time>
      </trkpt>
      <trkpt lat="42.802501" lon="0.647588">
        <ele>1655.8</ele>
        <time>2019-11-24T12:15:12Z</time>
      </trkpt>
      <trkpt lat="42.802451" lon="0.647701">
        <ele>1657.6</ele>
        <time>2019-11-24T12:15:27Z</time>
      </trkpt>
      <trkpt lat="42.802390" lon="0.647796">
        <ele>1660.4</ele>
        <time>2019-11-24T12:15:45Z</time>
      </trkpt>
      <trkpt lat="42.802346" lon="0.647892">
        <ele>1661.3</ele>
        <time>2019-11-24T12:16:02Z</time>
      </trkpt>
      <trkpt lat="42.802295" lon="0.648004">
        <ele>1662.2</ele>
        <time>2019-11-24T12:16:17Z</time>
      </trkpt>
      <trkpt lat="42.802230" lon="0.648105">
        <ele>1663.1</ele>
        <time>2019-11-24T12:16:31Z</time>
      </trkpt>
      <trkpt lat="42.802161" lon="0.648195">
        <ele>1663.1</ele>
        <time>2019-11-24T12:16:46Z</time>
      </trkpt>
      <trkpt lat="42.802093" lon="0.648268">
        <ele>1664.0</ele>
        <time>2019-11-24T12:17:01Z</time>
      </trkpt>
      <trkpt lat="42.802029" lon="0.648357">
        <ele>1665.0</ele>
        <time>2019-11-24T12:17:19Z</time>
      </trkpt>
      <trkpt lat="42.801972" lon="0.648455">
        <ele>1666.9</ele>
        <time>2019-11-24T12:17:39Z</time>
      </trkpt>
      <trkpt lat="42.801950" lon="0.648574">
        <ele>1670.2</ele>
        <time>2019-11-24T12:18:03Z</time>
      </trkpt>
      <trkpt lat="42.801942" lon="0.648699">
        <ele>1672.9</ele>
        <time>2019-11-24T12:18:28Z</time>
      </trkpt>
      <trkpt lat="42.801926" lon="0.648808">
        <ele>1674.5</ele>
        <time>2019-11-24T12:19:13Z</time>
      </trkpt>
      <trkpt lat="42.801867" lon="0.648888">
        <ele>1676.4</ele>
        <time>2019-11-24T12:19:33Z</time>
      </trkpt>
      <trkpt lat="42.801844" lon="0.649014">
        <ele>1679.2</ele>
        <time>2019-11-24T12:19:53Z</time>
      </trkpt>
      <trkpt lat="42.801805" lon="0.649115">
        <ele>1680.8</ele>
        <time>2019-11-24T12:20:12Z</time>
      </trkpt>
      <trkpt lat="42.801761" lon="0.649211">
        <ele>1682.8</ele>
        <time>2019-11-24T12:20:31Z</time>
      </trkpt>
      <trkpt lat="42.801716" lon="0.649322">
        <ele>1685.3</ele>
        <time>2019-11-24T12:20:54Z</time>
      </trkpt>
      <trkpt lat="42.801682" lon="0.649437">
        <ele>1688.1</ele>
        <time>2019-11-24T12:21:13Z</time>
      </trkpt>
      <trkpt lat="42.801645" lon="0.649531">
        <ele>1690.4</ele>
        <time>2019-11-24T12:21:36Z</time>
      </trkpt>
      <trkpt lat="42.801607" lon="0.649636">
        <ele>1693.2</ele>
        <time>2019-11-24T12:21:59Z</time>
      </trkpt>
      <trkpt lat="42.801585" lon="0.649736">
        <ele>1695.8</ele>
        <time>2019-11-24T12:22:59Z</time>
      </trkpt>
      <trkpt lat="42.801536" lon="0.649841">
        <ele>1698.6</ele>
        <time>2019-11-24T12:23:23Z</time>
      </trkpt>
      <trkpt lat="42.801503" lon="0.649952">
        <ele>1701.9</ele>
        <time>2019-11-24T12:23:49Z</time>
      </trkpt>
      <trkpt lat="42.801460" lon="0.650057">
        <ele>1704.3</ele>
        <time>2019-11-24T12:24:14Z</time>
      </trkpt>
      <trkpt lat="42.801427" lon="0.650161">
        <ele>1707.6</ele>
        <time>2019-11-24T12:24:39Z</time>
      </trkpt>
      <trkpt lat="42.801396" lon="0.650276">
        <ele>1710.0</ele>
        <time>2019-11-24T12:25:03Z</time>
      </trkpt>
      <trkpt lat="42.801370" lon="0.650384">
        <ele>1713.3</ele>
        <time>2019-11-24T12:25:28Z</time>
      </trkpt>
      <trkpt lat="42.801347" lon="0.650502">
        <ele>1716.2</ele>
        <time>2019-11-24T12:25:54Z</time>
      </trkpt>
      <trkpt lat="42.801317" lon="0.650613">
        <ele>1719.7</ele>
        <time>2019-11-24T12:26:18Z</time>
      </trkpt>
      <trkpt lat="42.801271" lon="0.650719">
        <ele>1722.4</ele>
        <time>2019-11-24T12:26:43Z</time>
      </trkpt>
      <trkpt lat="42.801227" lon="0.650817">
        <ele>1725.2</ele>
        <time>2019-11-24T12:27:06Z</time>
      </trkpt>
      <trkpt lat="42.801194" lon="0.650916">
        <ele>1727.0</ele>
        <time>2019-11-24T12:27:37Z</time>
      </trkpt>
      <trkpt lat="42.801178" lon="0.651032">
        <ele>1729.8</ele>
        <time>2019-11-24T12:28:06Z</time>
      </trkpt>
      <trkpt lat="42.801143" lon="0.651132">
        <ele>1732.4</ele>
        <time>2019-11-24T12:28:29Z</time>
      </trkpt>
      <trkpt lat="42.801098" lon="0.651232">
        <ele>1735.0</ele>
        <time>2019-11-24T12:28:52Z</time>
      </trkpt>
      <trkpt lat="42.801060" lon="0.651332">
        <ele>1738.6</ele>
        <time>2019-11-24T12:29:18Z</time>
      </trkpt>
      <trkpt lat="42.801019" lon="0.651435">
        <ele>1741.0</ele>
        <time>2019-11-24T12:29:44Z</time>
      </trkpt>
      <trkpt lat="42.800964" lon="0.651532">
        <ele>1743.8</ele>
        <time>2019-11-24T12:30:10Z</time>
      </trkpt>
      <trkpt lat="42.800906" lon="0.651630">
        <ele>1746.4</ele>
        <time>2019-11-24T12:30:33Z</time>
      </trkpt>
      <trkpt lat="42.800850" lon="0.651712">
        <ele>1748.1</ele>
        <time>2019-11-24T12:30:56Z</time>
      </trkpt>
      <trkpt lat="42.800808" lon="0.651815">
        <ele>1750.9</ele>
        <time>2019-11-24T12:31:34Z</time>
      </trkpt>
      <trkpt lat="42.800787" lon="0.651917">
        <ele>1752.9</ele>
        <time>2019-11-24T12:32:09Z</time>
      </trkpt>
      <trkpt lat="42.800748" lon="0.652017">
        <ele>1754.8</ele>
        <time>2019-11-24T12:32:28Z</time>
      </trkpt>
      <trkpt lat="42.800719" lon="0.652133">
        <ele>1755.7</ele>
        <time>2019-11-24T12:32:49Z</time>
      </trkpt>
      <trkpt lat="42.800660" lon="0.652238">
        <ele>1760.1</ele>
        <time>2019-11-24T12:33:19Z</time>
      </trkpt>
      <trkpt lat="42.800623" lon="0.652357">
        <ele>1761.7</ele>
        <time>2019-11-24T12:33:43Z</time>
      </trkpt>
      <trkpt lat="42.800562" lon="0.652412">
        <ele>1764.1</ele>
        <time>2019-11-24T12:34:10Z</time>
      </trkpt>
      <trkpt lat="42.800515" lon="0.652511">
        <ele>1768.4</ele>
        <time>2019-11-24T12:34:43Z</time>
      </trkpt>
      <trkpt lat="42.800481" lon="0.652618">
        <ele>1771.3</ele>
        <time>2019-11-24T12:35:29Z</time>
      </trkpt>
      <trkpt lat="42.800426" lon="0.652727">
        <ele>1774.0</ele>
        <time>2019-11-24T12:35:52Z</time>
      </trkpt>
      <trkpt lat="42.800351" lon="0.652813">
        <ele>1777.3</ele>
        <time>2019-11-24T12:36:25Z</time>
      </trkpt>
      <trkpt lat="42.800288" lon="0.652916">
        <ele>1783.1</ele>
        <time>2019-11-24T12:37:07Z</time>
      </trkpt>
      <trkpt lat="42.800250" lon="0.653032">
        <ele>1787.2</ele>
        <time>2019-11-24T12:37:39Z</time>
      </trkpt>
      <trkpt lat="42.800220" lon="0.653140">
        <ele>1791.3</ele>
        <time>2019-11-24T12:38:16Z</time>
      </trkpt>
      <trkpt lat="42.800188" lon="0.653248">
        <ele>1795.6</ele>
        <time>2019-11-24T12:38:43Z</time>
      </trkpt>
      <trkpt lat="42.800190" lon="0.653365">
        <ele>1799.7</ele>
        <time>2019-11-24T12:39:52Z</time>
      </trkpt>
      <trkpt lat="42.800188" lon="0.653466">
        <ele>1803.1</ele>
        <time>2019-11-24T12:40:41Z</time>
      </trkpt>
      <trkpt lat="42.800154" lon="0.653571">
        <ele>1807.5</ele>
        <time>2019-11-24T12:41:11Z</time>
      </trkpt>
      <trkpt lat="42.800123" lon="0.653682">
        <ele>1811.8</ele>
        <time>2019-11-24T12:41:40Z</time>
      </trkpt>
      <trkpt lat="42.800098" lon="0.653791">
        <ele>1814.4</ele>
        <time>2019-11-24T12:42:07Z</time>
      </trkpt>
      <trkpt lat="42.800090" lon="0.653909">
        <ele>1818.1</ele>
        <time>2019-11-24T12:42:30Z</time>
      </trkpt>
      <trkpt lat="42.800083" lon="0.654025">
        <ele>1821.5</ele>
        <time>2019-11-24T12:43:02Z</time>
      </trkpt>
      <trkpt lat="42.800063" lon="0.654160">
        <ele>1827.3</ele>
        <time>2019-11-24T12:43:47Z</time>
      </trkpt>
      <trkpt lat="42.800032" lon="0.654287">
        <ele>1830.6</ele>
        <time>2019-11-24T12:44:25Z</time>
      </trkpt>
      <trkpt lat="42.800025" lon="0.654407">
        <ele>1834.7</ele>
        <time>2019-11-24T12:44:57Z</time>
      </trkpt>
      <trkpt lat="42.800032" lon="0.654539">
        <ele>1840.3</ele>
        <time>2019-11-24T12:45:53Z</time>
      </trkpt>
      <trkpt lat="42.800008" lon="0.654670">
        <ele>1844.6</ele>
        <time>2019-11-24T12:46:33Z</time>
      </trkpt>
      <trkpt lat="42.799996" lon="0.654797">
        <ele>1850.5</ele>
        <time>2019-11-24T12:47:17Z</time>
      </trkpt>
      <trkpt lat="42.800001" lon="0.654924">
        <ele>1853.9</ele>
        <time>2019-11-24T12:48:09Z</time>
      </trkpt>
      <trkpt lat="42.800025" lon="0.655048">
        <ele>1856.4</ele>
        <time>2019-11-24T12:48:31Z</time>
      </trkpt>
      <trkpt lat="42.800008" lon="0.655166">
        <ele>1860.0</ele>
        <time>2019-11-24T12:48:55Z</time>
      </trkpt>
      <trkpt lat="42.799998" lon="0.655281">
        <ele>1863.5</ele>
        <time>2019-11-24T12:49:25Z</time>
      </trkpt>
      <trkpt lat="42.800009" lon="0.655411">
        <ele>1867.0</ele>
        <time>2019-11-24T12:50:08Z</time>
      </trkpt>
      <trkpt lat="42.800002" lon="0.655534">
        <ele>1871.3</ele>
        <time>2019-11-24T12:50:37Z</time>
      </trkpt>
      <trkpt lat="42.800004" lon="0.655655">
        <ele>1875.3</ele>
        <time>2019-11-24T12:51:03Z</time>
      </trkpt>
      <trkpt lat="42.800013" lon="0.655776">
        <ele>1879.7</ele>
        <time>2019-11-24T12:51:27Z</time>
      </trkpt>
      <trkpt lat="42.799971" lon="0.655873">
        <ele>1883.0</ele>
        <time>2019-11-24T12:51:56Z</time>
      </trkpt>
      <trkpt lat="42.799891" lon="0.655953">
        <ele>1885.7</ele>
        <time>2019-11-24T12:52:19Z</time>
      </trkpt>
      <trkpt lat="42.799828" lon="0.656060">
        <ele>1887.4</ele>
        <time>2019-11-24T12:52:45Z</time>
      </trkpt>
      <trkpt lat="42.799771" lon="0.656152">
        <ele>1889.1</ele>
        <time>2019-11-24T12:52:59Z</time>
      </trkpt>
      <trkpt lat="42.799695" lon="0.656240">
        <ele>1890.9</ele>
        <time>2019-11-24T12:53:18Z</time>
      </trkpt>
      <trkpt lat="42.799631" lon="0.656363">
        <ele>1891.7</ele>
        <time>2019-11-24T12:53:40Z</time>
      </trkpt>
      <trkpt lat="42.799564" lon="0.656464">
        <ele>1892.7</ele>
        <time>2019-11-24T12:53:55Z</time>
      </trkpt>
      <trkpt lat="42.799491" lon="0.656566">
        <ele>1894.4</ele>
        <time>2019-11-24T12:54:10Z</time>
      </trkpt>
      <trkpt lat="42.799449" lon="0.656670">
        <ele>1895.3</ele>
        <time>2019-11-24T12:54:26Z</time>
      </trkpt>
      <trkpt lat="42.799417" lon="0.656774">
        <ele>1897.9</ele>
        <time>2019-11-24T12:54:45Z</time>
      </trkpt>
      <trkpt lat="42.799380" lon="0.656893">
        <ele>1901.3</ele>
        <time>2019-11-24T12:55:07Z</time>
      </trkpt>
      <trkpt lat="42.799350" lon="0.657008">
        <ele>1904.8</ele>
        <time>2019-11-24T12:55:30Z</time>
      </trkpt>
      <trkpt lat="42.799343" lon="0.657133">
        <ele>1908.2</ele>
        <time>2019-11-24T12:55:51Z</time>
      </trkpt>
      <trkpt lat="42.799300" lon="0.657256">
        <ele>1911.6</ele>
        <time>2019-11-24T12:56:14Z</time>
      </trkpt>
      <trkpt lat="42.799255" lon="0.657366">
        <ele>1913.4</ele>
        <time>2019-11-24T12:56:35Z</time>
      </trkpt>
      <trkpt lat="42.799217" lon="0.657474">
        <ele>1917.5</ele>
        <time>2019-11-24T12:57:14Z</time>
      </trkpt>
      <trkpt lat="42.799157" lon="0.657542">
        <ele>1919.4</ele>
        <time>2019-11-24T12:58:54Z</time>
      </trkpt>
      <trkpt lat="42.799111" lon="0.657658">
        <ele>1922.0</ele>
        <time>2019-11-24T12:59:19Z</time>
      </trkpt>
      <trkpt lat="42.799053" lon="0.657762">
        <ele>1925.3</ele>
        <time>2019-11-24T12:59:41Z</time>
      </trkpt>
      <trkpt lat="42.799002" lon="0.657864">
        <ele>1927.9</ele>
        <time>2019-11-24T13:00:06Z</time>
      </trkpt>
      <trkpt lat="42.798940" lon="0.657952">
        <ele>1932.2</ele>
        <time>2019-11-24T13:00:30Z</time>
      </trkpt>
      <trkpt lat="42.798903" lon="0.658059">
        <ele>1936.0</ele>
        <time>2019-11-24T13:00:52Z</time>
      </trkpt>
      <trkpt lat="42.798887" lon="0.658166">
        <ele>1940.0</ele>
        <time>2019-11-24T13:01:16Z</time>
      </trkpt>
      <trkpt lat="42.798817" lon="0.658231">
        <ele>1943.4</ele>
        <time>2019-11-24T13:01:44Z</time>
      </trkpt>
      <trkpt lat="42.798815" lon="0.658348">
        <ele>1947.8</ele>
        <time>2019-11-24T13:02:10Z</time>
      </trkpt>
      <trkpt lat="42.798807" lon="0.658468">
        <ele>1951.7</ele>
        <time>2019-11-24T13:02:41Z</time>
      </trkpt>
      <trkpt lat="42.798748" lon="0.658561">
        <ele>1957.2</ele>
        <time>2019-11-24T13:03:09Z</time>
      </trkpt>
      <trkpt lat="42.798707" lon="0.658666">
        <ele>1961.6</ele>
        <time>2019-11-24T13:03:49Z</time>
      </trkpt>
      <trkpt lat="42.798668" lon="0.658775">
        <ele>1963.3</ele>
        <time>2019-11-24T13:04:17Z</time>
      </trkpt>
      <trkpt lat="42.798644" lon="0.658902">
        <ele>1968.6</ele>
        <time>2019-11-24T13:04:53Z</time>
      </trkpt>
      <trkpt lat="42.798619" lon="0.659028">
        <ele>1971.9</ele>
        <time>2019-11-24T13:05:22Z</time>
      </trkpt>
      <trkpt lat="42.798596" lon="0.659140">
        <ele>1976.6</ele>
        <time>2019-11-24T13:05:49Z</time>
      </trkpt>
      <trkpt lat="42.798562" lon="0.659256">
        <ele>1981.7</ele>
        <time>2019-11-24T13:06:30Z</time>
      </trkpt>
      <trkpt lat="42.798548" lon="0.659360">
        <ele>1985.9</ele>
        <time>2019-11-24T13:07:01Z</time>
      </trkpt>
      <trkpt lat="42.798518" lon="0.659488">
        <ele>1990.3</ele>
        <time>2019-11-24T13:07:34Z</time>
      </trkpt>
      <trkpt lat="42.798484" lon="0.659600">
        <ele>1992.7</ele>
        <time>2019-11-24T13:07:56Z</time>
      </trkpt>
      <trkpt lat="42.798432" lon="0.659701">
        <ele>1993.6</ele>
        <time>2019-11-24T13:08:11Z</time>
      </trkpt>
      <trkpt lat="42.798423" lon="0.659831">
        <ele>1994.8</ele>
        <time>2019-11-24T13:08:45Z</time>
      </trkpt>
      <trkpt lat="42.798427" lon="0.659953">
        <ele>1995.7</ele>
        <time>2019-11-24T13:09:08Z</time>
      </trkpt>
      <trkpt lat="42.798405" lon="0.660074">
        <ele>1998.1</ele>
        <time>2019-11-24T13:09:29Z</time>
      </trkpt>
      <trkpt lat="42.798401" lon="0.660192">
        <ele>2002.1</ele>
        <time>2019-11-24T13:09:50Z</time>
      </trkpt>
      <trkpt lat="42.798390" lon="0.660326">
        <ele>2004.6</ele>
        <time>2019-11-24T13:10:08Z</time>
      </trkpt>
      <trkpt lat="42.798354" lon="0.660444">
        <ele>2005.4</ele>
        <time>2019-11-24T13:10:22Z</time>
      </trkpt>
      <trkpt lat="42.798302" lon="0.660552">
        <ele>2005.3</ele>
        <time>2019-11-24T13:10:40Z</time>
      </trkpt>
      <trkpt lat="42.798237" lon="0.660650">
        <ele>2008.0</ele>
        <time>2019-11-24T13:11:02Z</time>
      </trkpt>
      <trkpt lat="42.798227" lon="0.660748">
        <ele>2007.9</ele>
        <time>2019-11-24T13:39:18Z</time>
      </trkpt>
      <trkpt lat="42.798204" lon="0.660788">
        <ele>2010.4</ele>
        <time>2019-11-24T13:43:06Z</time>
      </trkpt>
      <trkpt lat="42.798212" lon="0.660864">
        <ele>2007.7</ele>
        <time>2019-11-24T13:43:32Z</time>
      </trkpt>
      <trkpt lat="42.798238" lon="0.660988">
        <ele>2003.1</ele>
        <time>2019-11-24T13:43:43Z</time>
      </trkpt>
      <trkpt lat="42.798279" lon="0.661073">
        <ele>2001.3</ele>
        <time>2019-11-24T13:44:55Z</time>
      </trkpt>
      <trkpt lat="42.798300" lon="0.661190">
        <ele>1998.6</ele>
        <time>2019-11-24T13:45:08Z</time>
      </trkpt>
      <trkpt lat="42.798320" lon="0.661317">
        <ele>1996.8</ele>
        <time>2019-11-24T13:45:21Z</time>
      </trkpt>
      <trkpt lat="42.798321" lon="0.661443">
        <ele>1996.1</ele>
        <time>2019-11-24T13:45:33Z</time>
      </trkpt>
      <trkpt lat="42.798311" lon="0.661560">
        <ele>1996.1</ele>
        <time>2019-11-24T13:45:54Z</time>
      </trkpt>
      <trkpt lat="42.798326" lon="0.661673">
        <ele>1993.5</ele>
        <time>2019-11-24T13:46:16Z</time>
      </trkpt>
      <trkpt lat="42.798340" lon="0.661792">
        <ele>1990.3</ele>
        <time>2019-11-24T13:46:36Z</time>
      </trkpt>
      <trkpt lat="42.798347" lon="0.661927">
        <ele>1987.0</ele>
        <time>2019-11-24T13:46:48Z</time>
      </trkpt>
      <trkpt lat="42.798356" lon="0.662055">
        <ele>1986.2</ele>
        <time>2019-11-24T13:46:58Z</time>
      </trkpt>
      <trkpt lat="42.798359" lon="0.662187">
        <ele>1985.4</ele>
        <time>2019-11-24T13:47:09Z</time>
      </trkpt>
      <trkpt lat="42.798350" lon="0.662312">
        <ele>1985.5</ele>
        <time>2019-11-24T13:47:24Z</time>
      </trkpt>
      <trkpt lat="42.798360" lon="0.662437">
        <ele>1985.5</ele>
        <time>2019-11-24T13:47:36Z</time>
      </trkpt>
      <trkpt lat="42.798387" lon="0.662562">
        <ele>1984.7</ele>
        <time>2019-11-24T13:47:48Z</time>
      </trkpt>
      <trkpt lat="42.798426" lon="0.662671">
        <ele>1983.8</ele>
        <time>2019-11-24T13:48:01Z</time>
      </trkpt>
      <trkpt lat="42.798456" lon="0.662773">
        <ele>1982.3</ele>
        <time>2019-11-24T13:48:39Z</time>
      </trkpt>
      <trkpt lat="42.798487" lon="0.662831">
        <ele>1980.6</ele>
        <time>2019-11-24T13:51:52Z</time>
      </trkpt>
      <trkpt lat="42.798528" lon="0.662942">
        <ele>1978.9</ele>
        <time>2019-11-24T13:52:04Z</time>
      </trkpt>
      <trkpt lat="42.798572" lon="0.663054">
        <ele>1976.7</ele>
        <time>2019-11-24T13:52:17Z</time>
      </trkpt>
      <trkpt lat="42.798628" lon="0.663170">
        <ele>1975.1</ele>
        <time>2019-11-24T13:52:29Z</time>
      </trkpt>
      <trkpt lat="42.798681" lon="0.663274">
        <ele>1973.0</ele>
        <time>2019-11-24T13:52:39Z</time>
      </trkpt>
      <trkpt lat="42.798735" lon="0.663380">
        <ele>1970.6</ele>
        <time>2019-11-24T13:52:50Z</time>
      </trkpt>
      <trkpt lat="42.798795" lon="0.663476">
        <ele>1968.9</ele>
        <time>2019-11-24T13:53:00Z</time>
      </trkpt>
      <trkpt lat="42.798861" lon="0.663566">
        <ele>1967.2</ele>
        <time>2019-11-24T13:53:11Z</time>
      </trkpt>
      <trkpt lat="42.798923" lon="0.663662">
        <ele>1965.4</ele>
        <time>2019-11-24T13:53:22Z</time>
      </trkpt>
      <trkpt lat="42.798981" lon="0.663758">
        <ele>1963.6</ele>
        <time>2019-11-24T13:53:32Z</time>
      </trkpt>
      <trkpt lat="42.799047" lon="0.663856">
        <ele>1962.8</ele>
        <time>2019-11-24T13:53:43Z</time>
      </trkpt>
      <trkpt lat="42.799109" lon="0.663966">
        <ele>1961.8</ele>
        <time>2019-11-24T13:53:54Z</time>
      </trkpt>
      <trkpt lat="42.799167" lon="0.664071">
        <ele>1961.9</ele>
        <time>2019-11-24T13:54:05Z</time>
      </trkpt>
      <trkpt lat="42.799214" lon="0.664180">
        <ele>1961.9</ele>
        <time>2019-11-24T13:54:16Z</time>
      </trkpt>
      <trkpt lat="42.799252" lon="0.664306">
        <ele>1960.9</ele>
        <time>2019-11-24T13:54:26Z</time>
      </trkpt>
      <trkpt lat="42.799292" lon="0.664420">
        <ele>1960.9</ele>
        <time>2019-11-24T13:54:40Z</time>
      </trkpt>
      <trkpt lat="42.799342" lon="0.664518">
        <ele>1961.0</ele>
        <time>2019-11-24T13:54:51Z</time>
      </trkpt>
      <trkpt lat="42.799391" lon="0.664623">
        <ele>1961.0</ele>
        <time>2019-11-24T13:55:01Z</time>
      </trkpt>
      <trkpt lat="42.799446" lon="0.664730">
        <ele>1963.3</ele>
        <time>2019-11-24T13:55:12Z</time>
      </trkpt>
      <trkpt lat="42.799502" lon="0.664829">
        <ele>1964.1</ele>
        <time>2019-11-24T13:55:23Z</time>
      </trkpt>
      <trkpt lat="42.799558" lon="0.664917">
        <ele>1965.0</ele>
        <time>2019-11-24T13:55:34Z</time>
      </trkpt>
      <trkpt lat="42.799619" lon="0.665007">
        <ele>1966.6</ele>
        <time>2019-11-24T13:55:46Z</time>
      </trkpt>
      <trkpt lat="42.799684" lon="0.665103">
        <ele>1968.4</ele>
        <time>2019-11-24T13:55:59Z</time>
      </trkpt>
      <trkpt lat="42.799740" lon="0.665202">
        <ele>1970.9</ele>
        <time>2019-11-24T13:56:14Z</time>
      </trkpt>
      <trkpt lat="42.799796" lon="0.665312">
        <ele>1973.0</ele>
        <time>2019-11-24T13:56:30Z</time>
      </trkpt>
      <trkpt lat="42.799851" lon="0.665412">
        <ele>1976.4</ele>
        <time>2019-11-24T13:56:47Z</time>
      </trkpt>
      <trkpt lat="42.799916" lon="0.665501">
        <ele>1978.8</ele>
        <time>2019-11-24T13:57:04Z</time>
      </trkpt>
      <trkpt lat="42.799991" lon="0.665574">
        <ele>1981.4</ele>
        <time>2019-11-24T13:57:21Z</time>
      </trkpt>
      <trkpt lat="42.800058" lon="0.665650">
        <ele>1982.3</ele>
        <time>2019-11-24T13:57:38Z</time>
      </trkpt>
      <trkpt lat="42.800134" lon="0.665698">
        <ele>1981.9</ele>
        <time>2019-11-24T13:58:29Z</time>
      </trkpt>
      <trkpt lat="42.800222" lon="0.665723">
        <ele>1981.1</ele>
        <time>2019-11-24T13:58:42Z</time>
      </trkpt>
      <trkpt lat="42.800296" lon="0.665789">
        <ele>1980.3</ele>
        <time>2019-11-24T13:58:55Z</time>
      </trkpt>
      <trkpt lat="42.800366" lon="0.665881">
        <ele>1979.5</ele>
        <time>2019-11-24T13:59:08Z</time>
      </trkpt>
      <trkpt lat="42.800426" lon="0.665967">
        <ele>1976.8</ele>
        <time>2019-11-24T13:59:23Z</time>
      </trkpt>
      <trkpt lat="42.800462" lon="0.666083">
        <ele>1976.8</ele>
        <time>2019-11-24T13:59:35Z</time>
      </trkpt>
      <trkpt lat="42.800521" lon="0.666171">
        <ele>1975.1</ele>
        <time>2019-11-24T13:59:52Z</time>
      </trkpt>
      <trkpt lat="42.800592" lon="0.666253">
        <ele>1974.2</ele>
        <time>2019-11-24T14:00:04Z</time>
      </trkpt>
      <trkpt lat="42.800657" lon="0.666335">
        <ele>1972.7</ele>
        <time>2019-11-24T14:00:16Z</time>
      </trkpt>
      <trkpt lat="42.800729" lon="0.666398">
        <ele>1970.3</ele>
        <time>2019-11-24T14:00:47Z</time>
      </trkpt>
      <trkpt lat="42.800810" lon="0.666466">
        <ele>1968.6</ele>
        <time>2019-11-24T14:01:00Z</time>
      </trkpt>
      <trkpt lat="42.800889" lon="0.666534">
        <ele>1965.8</ele>
        <time>2019-11-24T14:01:12Z</time>
      </trkpt>
      <trkpt lat="42.800968" lon="0.666623">
        <ele>1965.1</ele>
        <time>2019-11-24T14:01:25Z</time>
      </trkpt>
      <trkpt lat="42.801038" lon="0.666706">
        <ele>1964.3</ele>
        <time>2019-11-24T14:01:36Z</time>
      </trkpt>
      <trkpt lat="42.801110" lon="0.666789">
        <ele>1963.6</ele>
        <time>2019-11-24T14:01:47Z</time>
      </trkpt>
      <trkpt lat="42.801175" lon="0.666878">
        <ele>1961.8</ele>
        <time>2019-11-24T14:01:57Z</time>
      </trkpt>
      <trkpt lat="42.801238" lon="0.666970">
        <ele>1961.8</ele>
        <time>2019-11-24T14:02:08Z</time>
      </trkpt>
      <trkpt lat="42.801299" lon="0.667059">
        <ele>1961.0</ele>
        <time>2019-11-24T14:02:19Z</time>
      </trkpt>
      <trkpt lat="42.801350" lon="0.667167">
        <ele>1961.0</ele>
        <time>2019-11-24T14:02:31Z</time>
      </trkpt>
      <trkpt lat="42.801392" lon="0.667277">
        <ele>1961.1</ele>
        <time>2019-11-24T14:02:43Z</time>
      </trkpt>
      <trkpt lat="42.801425" lon="0.667387">
        <ele>1961.1</ele>
        <time>2019-11-24T14:02:57Z</time>
      </trkpt>
      <trkpt lat="42.801453" lon="0.667503">
        <ele>1961.2</ele>
        <time>2019-11-24T14:03:17Z</time>
      </trkpt>
      <trkpt lat="42.801492" lon="0.667614">
        <ele>1961.2</ele>
        <time>2019-11-24T14:03:30Z</time>
      </trkpt>
      <trkpt lat="42.801508" lon="0.667701">
        <ele>1961.4</ele>
        <time>2019-11-24T14:04:50Z</time>
      </trkpt>
      <trkpt lat="42.801504" lon="0.667824">
        <ele>1961.4</ele>
        <time>2019-11-24T14:05:05Z</time>
      </trkpt>
      <trkpt lat="42.801503" lon="0.667955">
        <ele>1961.4</ele>
        <time>2019-11-24T14:05:19Z</time>
      </trkpt>
      <trkpt lat="42.801506" lon="0.668081">
        <ele>1961.4</ele>
        <time>2019-11-24T14:05:32Z</time>
      </trkpt>
      <trkpt lat="42.801515" lon="0.668205">
        <ele>1960.6</ele>
        <time>2019-11-24T14:05:44Z</time>
      </trkpt>
      <trkpt lat="42.801542" lon="0.668316">
        <ele>1957.8</ele>
        <time>2019-11-24T14:05:55Z</time>
      </trkpt>
      <trkpt lat="42.801577" lon="0.668447">
        <ele>1955.2</ele>
        <time>2019-11-24T14:06:06Z</time>
      </trkpt>
      <trkpt lat="42.801616" lon="0.668561">
        <ele>1953.7</ele>
        <time>2019-11-24T14:06:16Z</time>
      </trkpt>
      <trkpt lat="42.801669" lon="0.668662">
        <ele>1951.8</ele>
        <time>2019-11-24T14:06:27Z</time>
      </trkpt>
      <trkpt lat="42.801702" lon="0.668784">
        <ele>1949.4</ele>
        <time>2019-11-24T14:06:40Z</time>
      </trkpt>
      <trkpt lat="42.801718" lon="0.668845">
        <ele>1948.9</ele>
        <time>2019-11-24T14:07:14Z</time>
      </trkpt>
      <trkpt lat="42.801774" lon="0.668942">
        <ele>1945.4</ele>
        <time>2019-11-24T14:07:31Z</time>
      </trkpt>
      <trkpt lat="42.801828" lon="0.669034">
        <ele>1941.8</ele>
        <time>2019-11-24T14:07:45Z</time>
      </trkpt>
      <trkpt lat="42.801905" lon="0.669113">
        <ele>1937.9</ele>
        <time>2019-11-24T14:07:52Z</time>
      </trkpt>
      <trkpt lat="42.801994" lon="0.669167">
        <ele>1932.2</ele>
        <time>2019-11-24T14:07:59Z</time>
      </trkpt>
      <trkpt lat="42.802074" lon="0.669230">
        <ele>1927.7</ele>
        <time>2019-11-24T14:08:06Z</time>
      </trkpt>
      <trkpt lat="42.802153" lon="0.669295">
        <ele>1922.7</ele>
        <time>2019-11-24T14:08:14Z</time>
      </trkpt>
      <trkpt lat="42.802224" lon="0.669364">
        <ele>1918.7</ele>
        <time>2019-11-24T14:08:23Z</time>
      </trkpt>
      <trkpt lat="42.802304" lon="0.669444">
        <ele>1915.9</ele>
        <time>2019-11-24T14:08:32Z</time>
      </trkpt>
      <trkpt lat="42.802383" lon="0.669514">
        <ele>1913.1</ele>
        <time>2019-11-24T14:08:43Z</time>
      </trkpt>
      <trkpt lat="42.802466" lon="0.669570">
        <ele>1909.9</ele>
        <time>2019-11-24T14:08:53Z</time>
      </trkpt>
      <trkpt lat="42.802539" lon="0.669618">
        <ele>1906.7</ele>
        <time>2019-11-24T14:09:26Z</time>
      </trkpt>
      <trkpt lat="42.802564" lon="0.669618">
        <ele>1905.2</ele>
        <time>2019-11-24T14:11:53Z</time>
      </trkpt>
      <trkpt lat="42.802655" lon="0.669674">
        <ele>1903.5</ele>
        <time>2019-11-24T14:12:02Z</time>
      </trkpt>
      <trkpt lat="42.802748" lon="0.669722">
        <ele>1900.9</ele>
        <time>2019-11-24T14:12:10Z</time>
      </trkpt>
      <trkpt lat="42.802850" lon="0.669768">
        <ele>1899.0</ele>
        <time>2019-11-24T14:12:19Z</time>
      </trkpt>
      <trkpt lat="42.802930" lon="0.669829">
        <ele>1896.3</ele>
        <time>2019-11-24T14:12:28Z</time>
      </trkpt>
      <trkpt lat="42.803015" lon="0.669878">
        <ele>1894.7</ele>
        <time>2019-11-24T14:12:38Z</time>
      </trkpt>
      <trkpt lat="42.803101" lon="0.669934">
        <ele>1894.0</ele>
        <time>2019-11-24T14:12:48Z</time>
      </trkpt>
      <trkpt lat="42.803191" lon="0.669982">
        <ele>1894.1</ele>
        <time>2019-11-24T14:12:58Z</time>
      </trkpt>
      <trkpt lat="42.803283" lon="0.670020">
        <ele>1894.1</ele>
        <time>2019-11-24T14:13:07Z</time>
      </trkpt>
      <trkpt lat="42.803366" lon="0.670059">
        <ele>1894.2</ele>
        <time>2019-11-24T14:13:18Z</time>
      </trkpt>
      <trkpt lat="42.803452" lon="0.670122">
        <ele>1894.3</ele>
        <time>2019-11-24T14:13:32Z</time>
      </trkpt>
      <trkpt lat="42.803537" lon="0.670173">
        <ele>1896.7</ele>
        <time>2019-11-24T14:13:46Z</time>
      </trkpt>
      <trkpt lat="42.803616" lon="0.670232">
        <ele>1898.2</ele>
        <time>2019-11-24T14:14:00Z</time>
      </trkpt>
      <trkpt lat="42.803702" lon="0.670282">
        <ele>1900.8</ele>
        <time>2019-11-24T14:14:16Z</time>
      </trkpt>
      <trkpt lat="42.803793" lon="0.670325">
        <ele>1903.2</ele>
        <time>2019-11-24T14:14:34Z</time>
      </trkpt>
      <trkpt lat="42.803874" lon="0.670379">
        <ele>1904.9</ele>
        <time>2019-11-24T14:14:50Z</time>
      </trkpt>
      <trkpt lat="42.803953" lon="0.670440">
        <ele>1906.5</ele>
        <time>2019-11-24T14:15:05Z</time>
      </trkpt>
      <trkpt lat="42.804041" lon="0.670492">
        <ele>1907.3</ele>
        <time>2019-11-24T14:15:33Z</time>
      </trkpt>
      <trkpt lat="42.804129" lon="0.670546">
        <ele>1911.1</ele>
        <time>2019-11-24T14:15:52Z</time>
      </trkpt>
      <trkpt lat="42.804216" lon="0.670578">
        <ele>1912.7</ele>
        <time>2019-11-24T14:16:10Z</time>
      </trkpt>
      <trkpt lat="42.804308" lon="0.670604">
        <ele>1916.3</ele>
        <time>2019-11-24T14:16:32Z</time>
      </trkpt>
      <trkpt lat="42.804405" lon="0.670641">
        <ele>1920.5</ele>
        <time>2019-11-24T14:16:59Z</time>
      </trkpt>
      <trkpt lat="42.804484" lon="0.670658">
        <ele>1925.3</ele>
        <time>2019-11-24T14:17:28Z</time>
      </trkpt>
      <trkpt lat="42.804566" lon="0.670594">
        <ele>1928.7</ele>
        <time>2019-11-24T14:17:56Z</time>
      </trkpt>
      <trkpt lat="42.804663" lon="0.670559">
        <ele>1930.5</ele>
        <time>2019-11-24T14:18:16Z</time>
      </trkpt>
      <trkpt lat="42.804757" lon="0.670555">
        <ele>1930.4</ele>
        <time>2019-11-24T14:18:53Z</time>
      </trkpt>
      <trkpt lat="42.804852" lon="0.670554">
        <ele>1930.4</ele>
        <time>2019-11-24T14:19:06Z</time>
      </trkpt>
      <trkpt lat="42.804946" lon="0.670552">
        <ele>1931.9</ele>
        <time>2019-11-24T14:19:21Z</time>
      </trkpt>
      <trkpt lat="42.805035" lon="0.670545">
        <ele>1933.7</ele>
        <time>2019-11-24T14:19:42Z</time>
      </trkpt>
      <trkpt lat="42.805134" lon="0.670523">
        <ele>1937.1</ele>
        <time>2019-11-24T14:20:06Z</time>
      </trkpt>
      <trkpt lat="42.805227" lon="0.670507">
        <ele>1939.7</ele>
        <time>2019-11-24T14:20:33Z</time>
      </trkpt>
      <trkpt lat="42.805319" lon="0.670485">
        <ele>1943.4</ele>
        <time>2019-11-24T14:21:00Z</time>
      </trkpt>
      <trkpt lat="42.805413" lon="0.670495">
        <ele>1947.5</ele>
        <time>2019-11-24T14:21:30Z</time>
      </trkpt>
      <trkpt lat="42.805485" lon="0.670472">
        <ele>1952.0</ele>
        <time>2019-11-24T14:22:02Z</time>
      </trkpt>
      <trkpt lat="42.805558" lon="0.670401">
        <ele>1956.9</ele>
        <time>2019-11-24T14:22:46Z</time>
      </trkpt>
      <trkpt lat="42.805639" lon="0.670336">
        <ele>1963.6</ele>
        <time>2019-11-24T14:24:02Z</time>
      </trkpt>
      <trkpt lat="42.805703" lon="0.670286">
        <ele>1968.5</ele>
        <time>2019-11-24T14:25:34Z</time>
      </trkpt>
      <trkpt lat="42.805763" lon="0.670244">
        <ele>1970.8</ele>
        <time>2019-11-24T14:27:01Z</time>
      </trkpt>
      <trkpt lat="42.805824" lon="0.670279">
        <ele>1976.5</ele>
        <time>2019-11-24T14:27:49Z</time>
      </trkpt>
      <trkpt lat="42.805876" lon="0.670376">
        <ele>1981.5</ele>
        <time>2019-11-24T14:28:26Z</time>
      </trkpt>
      <trkpt lat="42.805951" lon="0.670417">
        <ele>1986.7</ele>
        <time>2019-11-24T14:29:04Z</time>
      </trkpt>
      <trkpt lat="42.806017" lon="0.670343">
        <ele>1991.7</ele>
        <time>2019-11-24T14:29:48Z</time>
      </trkpt>
      <trkpt lat="42.806090" lon="0.670330">
        <ele>1994.9</ele>
        <time>2019-11-24T14:30:17Z</time>
      </trkpt>
      <trkpt lat="42.806170" lon="0.670259">
        <ele>1998.1</ele>
        <time>2019-11-24T14:30:46Z</time>
      </trkpt>
      <trkpt lat="42.806262" lon="0.670208">
        <ele>2002.7</ele>
        <time>2019-11-24T14:31:26Z</time>
      </trkpt>
      <trkpt lat="42.806314" lon="0.670137">
        <ele>2005.3</ele>
        <time>2019-11-24T14:31:54Z</time>
      </trkpt>
      <trkpt lat="42.806397" lon="0.670073">
        <ele>2008.7</ele>
        <time>2019-11-24T14:32:21Z</time>
      </trkpt>
      <trkpt lat="42.806445" lon="0.670031">
        <ele>2011.2</ele>
        <time>2019-11-24T14:39:11Z</time>
      </trkpt>
      <trkpt lat="42.806526" lon="0.669965">
        <ele>2011.1</ele>
        <time>2019-11-24T14:39:26Z</time>
      </trkpt>
      <trkpt lat="42.806604" lon="0.669889">
        <ele>2011.1</ele>
        <time>2019-11-24T14:39:43Z</time>
      </trkpt>
      <trkpt lat="42.806687" lon="0.669815">
        <ele>2011.1</ele>
        <time>2019-11-24T14:39:54Z</time>
      </trkpt>
      <trkpt lat="42.806761" lon="0.669740">
        <ele>2008.7</ele>
        <time>2019-11-24T14:40:22Z</time>
      </trkpt>
      <trkpt lat="42.806828" lon="0.669656">
        <ele>2007.1</ele>
        <time>2019-11-24T14:40:35Z</time>
      </trkpt>
      <trkpt lat="42.806906" lon="0.669584">
        <ele>2005.4</ele>
        <time>2019-11-24T14:40:48Z</time>
      </trkpt>
      <trkpt lat="42.806980" lon="0.669509">
        <ele>2003.7</ele>
        <time>2019-11-24T14:40:58Z</time>
      </trkpt>
      <trkpt lat="42.807055" lon="0.669431">
        <ele>2002.1</ele>
        <time>2019-11-24T14:41:07Z</time>
      </trkpt>
      <trkpt lat="42.807136" lon="0.669376">
        <ele>1999.5</ele>
        <time>2019-11-24T14:41:17Z</time>
      </trkpt>
      <trkpt lat="42.807227" lon="0.669360">
        <ele>1997.9</ele>
        <time>2019-11-24T14:41:28Z</time>
      </trkpt>
      <trkpt lat="42.807313" lon="0.669333">
        <ele>1995.4</ele>
        <time>2019-11-24T14:41:40Z</time>
      </trkpt>
      <trkpt lat="42.807403" lon="0.669311">
        <ele>1993.3</ele>
        <time>2019-11-24T14:41:50Z</time>
      </trkpt>
      <trkpt lat="42.807488" lon="0.669288">
        <ele>1991.8</ele>
        <time>2019-11-24T14:42:00Z</time>
      </trkpt>
      <trkpt lat="42.807563" lon="0.669256">
        <ele>1991.2</ele>
        <time>2019-11-24T14:42:41Z</time>
      </trkpt>
      <trkpt lat="42.807612" lon="0.669158">
        <ele>1992.3</ele>
        <time>2019-11-24T14:43:06Z</time>
      </trkpt>
      <trkpt lat="42.807697" lon="0.669092">
        <ele>1994.2</ele>
        <time>2019-11-24T14:43:28Z</time>
      </trkpt>
      <trkpt lat="42.807793" lon="0.669052">
        <ele>1998.4</ele>
        <time>2019-11-24T14:43:50Z</time>
      </trkpt>
      <trkpt lat="42.807889" lon="0.669033">
        <ele>1999.9</ele>
        <time>2019-11-24T14:44:10Z</time>
      </trkpt>
      <trkpt lat="42.807965" lon="0.668983">
        <ele>2001.8</ele>
        <time>2019-11-24T14:44:25Z</time>
      </trkpt>
      <trkpt lat="42.808036" lon="0.668934">
        <ele>2003.2</ele>
        <time>2019-11-24T14:44:47Z</time>
      </trkpt>
      <trkpt lat="42.808123" lon="0.668893">
        <ele>2004.3</ele>
        <time>2019-11-24T14:45:02Z</time>
      </trkpt>
      <trkpt lat="42.808213" lon="0.668876">
        <ele>2005.1</ele>
        <time>2019-11-24T14:45:21Z</time>
      </trkpt>
      <trkpt lat="42.808310" lon="0.668890">
        <ele>2005.1</ele>
        <time>2019-11-24T14:45:33Z</time>
      </trkpt>
      <trkpt lat="42.808400" lon="0.668880">
        <ele>2005.0</ele>
        <time>2019-11-24T14:45:43Z</time>
      </trkpt>
      <trkpt lat="42.808489" lon="0.668856">
        <ele>2005.0</ele>
        <time>2019-11-24T14:45:55Z</time>
      </trkpt>
      <trkpt lat="42.808584" lon="0.668824">
        <ele>2005.0</ele>
        <time>2019-11-24T14:46:06Z</time>
      </trkpt>
      <trkpt lat="42.808679" lon="0.668811">
        <ele>2005.8</ele>
        <time>2019-11-24T14:46:17Z</time>
      </trkpt>
      <trkpt lat="42.808762" lon="0.668754">
        <ele>2006.5</ele>
        <time>2019-11-24T14:46:29Z</time>
      </trkpt>
      <trkpt lat="42.808857" lon="0.668697">
        <ele>2007.3</ele>
        <time>2019-11-24T14:46:42Z</time>
      </trkpt>
      <trkpt lat="42.808954" lon="0.668643">
        <ele>2008.9</ele>
        <time>2019-11-24T14:46:56Z</time>
      </trkpt>
      <trkpt lat="42.809048" lon="0.668604">
        <ele>2008.8</ele>
        <time>2019-11-24T14:47:09Z</time>
      </trkpt>
      <trkpt lat="42.809154" lon="0.668580">
        <ele>2009.7</ele>
        <time>2019-11-24T14:47:24Z</time>
      </trkpt>
      <trkpt lat="42.809230" lon="0.668563">
        <ele>2010.3</ele>
        <time>2019-11-24T14:47:50Z</time>
      </trkpt>
      <trkpt lat="42.809318" lon="0.668524">
        <ele>2010.2</ele>
        <time>2019-11-24T14:48:15Z</time>
      </trkpt>
      <trkpt lat="42.809401" lon="0.668453">
        <ele>2010.2</ele>
        <time>2019-11-24T14:48:26Z</time>
      </trkpt>
      <trkpt lat="42.809480" lon="0.668379">
        <ele>2007.0</ele>
        <time>2019-11-24T14:48:38Z</time>
      </trkpt>
      <trkpt lat="42.809555" lon="0.668301">
        <ele>2006.2</ele>
        <time>2019-11-24T14:49:01Z</time>
      </trkpt>
      <trkpt lat="42.809644" lon="0.668242">
        <ele>2004.4</ele>
        <time>2019-11-24T14:49:13Z</time>
      </trkpt>
      <trkpt lat="42.809731" lon="0.668199">
        <ele>2003.5</ele>
        <time>2019-11-24T14:49:24Z</time>
      </trkpt>
      <trkpt lat="42.809806" lon="0.668151">
        <ele>2001.7</ele>
        <time>2019-11-24T14:49:45Z</time>
      </trkpt>
      <trkpt lat="42.809888" lon="0.668073">
        <ele>2001.5</ele>
        <time>2019-11-24T14:49:59Z</time>
      </trkpt>
      <trkpt lat="42.809975" lon="0.668003">
        <ele>1998.0</ele>
        <time>2019-11-24T14:50:13Z</time>
      </trkpt>
      <trkpt lat="42.810064" lon="0.667953">
        <ele>1997.9</ele>
        <time>2019-11-24T14:50:25Z</time>
      </trkpt>
      <trkpt lat="42.810133" lon="0.667902">
        <ele>1996.8</ele>
        <time>2019-11-24T14:53:04Z</time>
      </trkpt>
      <trkpt lat="42.810196" lon="0.667819">
        <ele>1996.8</ele>
        <time>2019-11-24T14:53:20Z</time>
      </trkpt>
      <trkpt lat="42.810266" lon="0.667735">
        <ele>1993.5</ele>
        <time>2019-11-24T14:53:31Z</time>
      </trkpt>
      <trkpt lat="42.810343" lon="0.667676">
        <ele>1991.7</ele>
        <time>2019-11-24T14:53:40Z</time>
      </trkpt>
      <trkpt lat="42.810413" lon="0.667593">
        <ele>1990.9</ele>
        <time>2019-11-24T14:53:51Z</time>
      </trkpt>
      <trkpt lat="42.810481" lon="0.667501">
        <ele>1989.2</ele>
        <time>2019-11-24T14:54:01Z</time>
      </trkpt>
      <trkpt lat="42.810549" lon="0.667409">
        <ele>1987.1</ele>
        <time>2019-11-24T14:54:11Z</time>
      </trkpt>
      <trkpt lat="42.810612" lon="0.667322">
        <ele>1985.3</ele>
        <time>2019-11-24T14:54:24Z</time>
      </trkpt>
      <trkpt lat="42.810696" lon="0.667228">
        <ele>1983.6</ele>
        <time>2019-11-24T14:54:58Z</time>
      </trkpt>
      <trkpt lat="42.810765" lon="0.667140">
        <ele>1981.7</ele>
        <time>2019-11-24T14:55:07Z</time>
      </trkpt>
      <trkpt lat="42.810823" lon="0.667048">
        <ele>1980.7</ele>
        <time>2019-11-24T14:55:19Z</time>
      </trkpt>
      <trkpt lat="42.810886" lon="0.666949">
        <ele>1980.8</ele>
        <time>2019-11-24T14:55:32Z</time>
      </trkpt>
      <trkpt lat="42.810951" lon="0.666862">
        <ele>1980.7</ele>
        <time>2019-11-24T14:55:45Z</time>
      </trkpt>
      <trkpt lat="42.811008" lon="0.666790">
        <ele>1980.4</ele>
        <time>2019-11-24T15:00:37Z</time>
      </trkpt>
      <trkpt lat="42.811080" lon="0.666708">
        <ele>1977.5</ele>
        <time>2019-11-24T15:00:49Z</time>
      </trkpt>
      <trkpt lat="42.811162" lon="0.666657">
        <ele>1975.8</ele>
        <time>2019-11-24T15:01:00Z</time>
      </trkpt>
      <trkpt lat="42.811231" lon="0.666577">
        <ele>1973.2</ele>
        <time>2019-11-24T15:01:11Z</time>
      </trkpt>
      <trkpt lat="42.811315" lon="0.666518">
        <ele>1969.8</ele>
        <time>2019-11-24T15:01:22Z</time>
      </trkpt>
      <trkpt lat="42.811385" lon="0.666436">
        <ele>1966.8</ele>
        <time>2019-11-24T15:01:32Z</time>
      </trkpt>
      <trkpt lat="42.811470" lon="0.666377">
        <ele>1963.2</ele>
        <time>2019-11-24T15:01:43Z</time>
      </trkpt>
      <trkpt lat="42.811542" lon="0.666302">
        <ele>1962.5</ele>
        <time>2019-11-24T15:01:55Z</time>
      </trkpt>
      <trkpt lat="42.811606" lon="0.666254">
        <ele>1960.8</ele>
        <time>2019-11-24T15:03:29Z</time>
      </trkpt>
      <trkpt lat="42.811689" lon="0.666203">
        <ele>1958.8</ele>
        <time>2019-11-24T15:03:39Z</time>
      </trkpt>
      <trkpt lat="42.811762" lon="0.666128">
        <ele>1954.4</ele>
        <time>2019-11-24T15:03:49Z</time>
      </trkpt>
      <trkpt lat="42.811841" lon="0.666067">
        <ele>1950.7</ele>
        <time>2019-11-24T15:03:59Z</time>
      </trkpt>
      <trkpt lat="42.811925" lon="0.665990">
        <ele>1947.9</ele>
        <time>2019-11-24T15:04:11Z</time>
      </trkpt>
      <trkpt lat="42.811998" lon="0.665911">
        <ele>1947.2</ele>
        <time>2019-11-24T15:04:22Z</time>
      </trkpt>
      <trkpt lat="42.812077" lon="0.665828">
        <ele>1945.5</ele>
        <time>2019-11-24T15:04:33Z</time>
      </trkpt>
      <trkpt lat="42.812147" lon="0.665747">
        <ele>1943.1</ele>
        <time>2019-11-24T15:04:43Z</time>
      </trkpt>
      <trkpt lat="42.812219" lon="0.665661">
        <ele>1941.2</ele>
        <time>2019-11-24T15:04:55Z</time>
      </trkpt>
      <trkpt lat="42.812309" lon="0.665600">
        <ele>1942.0</ele>
        <time>2019-11-24T15:05:30Z</time>
      </trkpt>
      <trkpt lat="42.812386" lon="0.665538">
        <ele>1938.9</ele>
        <time>2019-11-24T15:05:41Z</time>
      </trkpt>
      <trkpt lat="42.812473" lon="0.665473">
        <ele>1937.3</ele>
        <time>2019-11-24T15:05:52Z</time>
      </trkpt>
      <trkpt lat="42.812554" lon="0.665404">
        <ele>1937.3</ele>
        <time>2019-11-24T15:06:04Z</time>
      </trkpt>
      <trkpt lat="42.812633" lon="0.665326">
        <ele>1936.5</ele>
        <time>2019-11-24T15:06:19Z</time>
      </trkpt>
      <trkpt lat="42.812723" lon="0.665272">
        <ele>1934.8</ele>
        <time>2019-11-24T15:06:33Z</time>
      </trkpt>
      <trkpt lat="42.812795" lon="0.665212">
        <ele>1932.3</ele>
        <time>2019-11-24T15:06:52Z</time>
      </trkpt>
      <trkpt lat="42.812876" lon="0.665147">
        <ele>1930.7</ele>
        <time>2019-11-24T15:07:07Z</time>
      </trkpt>
      <trkpt lat="42.812953" lon="0.665072">
        <ele>1929.2</ele>
        <time>2019-11-24T15:07:18Z</time>
      </trkpt>
      <trkpt lat="42.812990" lon="0.664967">
        <ele>1928.4</ele>
        <time>2019-11-24T15:07:36Z</time>
      </trkpt>
      <trkpt lat="42.813036" lon="0.664847">
        <ele>1927.5</ele>
        <time>2019-11-24T15:07:50Z</time>
      </trkpt>
      <trkpt lat="42.813107" lon="0.664742">
        <ele>1927.5</ele>
        <time>2019-11-24T15:08:05Z</time>
      </trkpt>
      <trkpt lat="42.813188" lon="0.664660">
        <ele>1929.8</ele>
        <time>2019-11-24T15:08:26Z</time>
      </trkpt>
      <trkpt lat="42.813258" lon="0.664588">
        <ele>1931.8</ele>
        <time>2019-11-24T15:08:47Z</time>
      </trkpt>
      <trkpt lat="42.813302" lon="0.664493">
        <ele>1931.8</ele>
        <time>2019-11-24T15:13:14Z</time>
      </trkpt>
      <trkpt lat="42.813264" lon="0.664381">
        <ele>1925.9</ele>
        <time>2019-11-24T15:13:27Z</time>
      </trkpt>
      <trkpt lat="42.813236" lon="0.664287">
        <ele>1923.3</ele>
        <time>2019-11-24T15:13:40Z</time>
      </trkpt>
      <trkpt lat="42.813273" lon="0.664161">
        <ele>1919.0</ele>
        <time>2019-11-24T15:13:52Z</time>
      </trkpt>
      <trkpt lat="42.813290" lon="0.664040">
        <ele>1914.2</ele>
        <time>2019-11-24T15:14:05Z</time>
      </trkpt>
      <trkpt lat="42.813359" lon="0.663947">
        <ele>1911.5</ele>
        <time>2019-11-24T15:14:17Z</time>
      </trkpt>
      <trkpt lat="42.813429" lon="0.663845">
        <ele>1909.7</ele>
        <time>2019-11-24T15:14:29Z</time>
      </trkpt>
      <trkpt lat="42.813512" lon="0.663760">
        <ele>1907.0</ele>
        <time>2019-11-24T15:14:40Z</time>
      </trkpt>
      <trkpt lat="42.813567" lon="0.663675">
        <ele>1904.3</ele>
        <time>2019-11-24T15:14:56Z</time>
      </trkpt>
      <trkpt lat="42.813627" lon="0.663574">
        <ele>1902.7</ele>
        <time>2019-11-24T15:15:07Z</time>
      </trkpt>
      <trkpt lat="42.813672" lon="0.663464">
        <ele>1901.1</ele>
        <time>2019-11-24T15:15:18Z</time>
      </trkpt>
      <trkpt lat="42.813700" lon="0.663342">
        <ele>1901.1</ele>
        <time>2019-11-24T15:15:31Z</time>
      </trkpt>
      <trkpt lat="42.813677" lon="0.663262">
        <ele>1902.2</ele>
        <time>2019-11-24T15:16:18Z</time>
      </trkpt>
      <trkpt lat="42.813602" lon="0.663187">
        <ele>1896.2</ele>
        <time>2019-11-24T15:16:34Z</time>
      </trkpt>
      <trkpt lat="42.813604" lon="0.663054">
        <ele>1893.3</ele>
        <time>2019-11-24T15:16:46Z</time>
      </trkpt>
      <trkpt lat="42.813674" lon="0.662982">
        <ele>1890.7</ele>
        <time>2019-11-24T15:17:02Z</time>
      </trkpt>
      <trkpt lat="42.813648" lon="0.662860">
        <ele>1887.3</ele>
        <time>2019-11-24T15:17:15Z</time>
      </trkpt>
      <trkpt lat="42.813662" lon="0.662738">
        <ele>1882.7</ele>
        <time>2019-11-24T15:17:32Z</time>
      </trkpt>
      <trkpt lat="42.813655" lon="0.662637">
        <ele>1878.3</ele>
        <time>2019-11-24T15:17:53Z</time>
      </trkpt>
      <trkpt lat="42.813734" lon="0.662571">
        <ele>1874.9</ele>
        <time>2019-11-24T15:18:13Z</time>
      </trkpt>
      <trkpt lat="42.813738" lon="0.662486">
        <ele>1870.1</ele>
        <time>2019-11-24T15:18:39Z</time>
      </trkpt>
      <trkpt lat="42.813647" lon="0.662410">
        <ele>1866.7</ele>
        <time>2019-11-24T15:19:00Z</time>
      </trkpt>
      <trkpt lat="42.813586" lon="0.662299">
        <ele>1862.8</ele>
        <time>2019-11-24T15:19:12Z</time>
      </trkpt>
      <trkpt lat="42.813600" lon="0.662201">
        <ele>1862.9</ele>
        <time>2019-11-24T15:20:02Z</time>
      </trkpt>
      <trkpt lat="42.813597" lon="0.662079">
        <ele>1859.2</ele>
        <time>2019-11-24T15:20:14Z</time>
      </trkpt>
      <trkpt lat="42.813581" lon="0.661951">
        <ele>1854.6</ele>
        <time>2019-11-24T15:20:26Z</time>
      </trkpt>
      <trkpt lat="42.813561" lon="0.661825">
        <ele>1851.0</ele>
        <time>2019-11-24T15:20:38Z</time>
      </trkpt>
      <trkpt lat="42.813512" lon="0.661707">
        <ele>1848.7</ele>
        <time>2019-11-24T15:21:32Z</time>
      </trkpt>
      <trkpt lat="42.813515" lon="0.661580">
        <ele>1844.1</ele>
        <time>2019-11-24T15:21:45Z</time>
      </trkpt>
      <trkpt lat="42.813480" lon="0.661475">
        <ele>1840.3</ele>
        <time>2019-11-24T15:22:12Z</time>
      </trkpt>
      <trkpt lat="42.813481" lon="0.661359">
        <ele>1834.9</ele>
        <time>2019-11-24T15:22:24Z</time>
      </trkpt>
      <trkpt lat="42.813438" lon="0.661251">
        <ele>1830.8</ele>
        <time>2019-11-24T15:22:35Z</time>
      </trkpt>
      <trkpt lat="42.813420" lon="0.661125">
        <ele>1825.3</ele>
        <time>2019-11-24T15:22:47Z</time>
      </trkpt>
      <trkpt lat="42.813410" lon="0.661009">
        <ele>1820.9</ele>
        <time>2019-11-24T15:23:01Z</time>
      </trkpt>
      <trkpt lat="42.813415" lon="0.660884">
        <ele>1816.2</ele>
        <time>2019-11-24T15:23:15Z</time>
      </trkpt>
      <trkpt lat="42.813385" lon="0.660776">
        <ele>1811.1</ele>
        <time>2019-11-24T15:23:55Z</time>
      </trkpt>
      <trkpt lat="42.813379" lon="0.660642">
        <ele>1806.4</ele>
        <time>2019-11-24T15:24:06Z</time>
      </trkpt>
      <trkpt lat="42.813408" lon="0.660526">
        <ele>1802.7</ele>
        <time>2019-11-24T15:24:16Z</time>
      </trkpt>
      <trkpt lat="42.813461" lon="0.660410">
        <ele>1797.9</ele>
        <time>2019-11-24T15:24:28Z</time>
      </trkpt>
      <trkpt lat="42.813506" lon="0.660290">
        <ele>1792.0</ele>
        <time>2019-11-24T15:24:38Z</time>
      </trkpt>
      <trkpt lat="42.813528" lon="0.660170">
        <ele>1786.6</ele>
        <time>2019-11-24T15:24:48Z</time>
      </trkpt>
      <trkpt lat="42.813515" lon="0.660046">
        <ele>1780.3</ele>
        <time>2019-11-24T15:25:00Z</time>
      </trkpt>
      <trkpt lat="42.813525" lon="0.659919">
        <ele>1775.6</ele>
        <time>2019-11-24T15:25:12Z</time>
      </trkpt>
      <trkpt lat="42.813533" lon="0.659797">
        <ele>1771.2</ele>
        <time>2019-11-24T15:25:23Z</time>
      </trkpt>
      <trkpt lat="42.813472" lon="0.659685">
        <ele>1766.6</ele>
        <time>2019-11-24T15:25:36Z</time>
      </trkpt>
      <trkpt lat="42.813492" lon="0.659562">
        <ele>1762.6</ele>
        <time>2019-11-24T15:25:49Z</time>
      </trkpt>
      <trkpt lat="42.813509" lon="0.659438">
        <ele>1757.2</ele>
        <time>2019-11-24T15:26:00Z</time>
      </trkpt>
      <trkpt lat="42.813498" lon="0.659314">
        <ele>1752.8</ele>
        <time>2019-11-24T15:26:11Z</time>
      </trkpt>
      <trkpt lat="42.813497" lon="0.659188">
        <ele>1747.9</ele>
        <time>2019-11-24T15:26:22Z</time>
      </trkpt>
      <trkpt lat="42.813488" lon="0.659061">
        <ele>1743.2</ele>
        <time>2019-11-24T15:26:36Z</time>
      </trkpt>
      <trkpt lat="42.813518" lon="0.658933">
        <ele>1738.7</ele>
        <time>2019-11-24T15:26:47Z</time>
      </trkpt>
      <trkpt lat="42.813534" lon="0.658808">
        <ele>1733.8</ele>
        <time>2019-11-24T15:26:58Z</time>
      </trkpt>
      <trkpt lat="42.813548" lon="0.658693">
        <ele>1727.8</ele>
        <time>2019-11-24T15:27:10Z</time>
      </trkpt>
      <trkpt lat="42.813522" lon="0.658607">
        <ele>1724.0</ele>
        <time>2019-11-24T15:27:46Z</time>
      </trkpt>
      <trkpt lat="42.813558" lon="0.658526">
        <ele>1718.0</ele>
        <time>2019-11-24T15:28:30Z</time>
      </trkpt>
      <trkpt lat="42.813583" lon="0.658344">
        <ele>1710.4</ele>
        <time>2019-11-24T15:30:02Z</time>
      </trkpt>
      <trkpt lat="42.813568" lon="0.658200">
        <ele>1704.9</ele>
        <time>2019-11-24T15:30:12Z</time>
      </trkpt>
      <trkpt lat="42.813547" lon="0.658062">
        <ele>1700.0</ele>
        <time>2019-11-24T15:30:24Z</time>
      </trkpt>
      <trkpt lat="42.813547" lon="0.657929">
        <ele>1697.2</ele>
        <time>2019-11-24T15:30:40Z</time>
      </trkpt>
      <trkpt lat="42.813530" lon="0.657794">
        <ele>1694.2</ele>
        <time>2019-11-24T15:30:49Z</time>
      </trkpt>
      <trkpt lat="42.813510" lon="0.657666">
        <ele>1690.4</ele>
        <time>2019-11-24T15:30:59Z</time>
      </trkpt>
      <trkpt lat="42.813488" lon="0.657520">
        <ele>1686.9</ele>
        <time>2019-11-24T15:31:09Z</time>
      </trkpt>
      <trkpt lat="42.813474" lon="0.657377">
        <ele>1684.5</ele>
        <time>2019-11-24T15:31:19Z</time>
      </trkpt>
      <trkpt lat="42.813470" lon="0.657320">
        <ele>1684.0</ele>
        <time>2019-11-24T15:32:23Z</time>
      </trkpt>
      <trkpt lat="42.813447" lon="0.657292">
        <ele>1683.0</ele>
        <time>2019-11-24T15:33:21Z</time>
      </trkpt>
      <trkpt lat="42.813454" lon="0.657210">
        <ele>1683.5</ele>
        <time>2019-11-24T15:34:49Z</time>
      </trkpt>
      <trkpt lat="42.813414" lon="0.657095">
        <ele>1681.9</ele>
        <time>2019-11-24T15:35:02Z</time>
      </trkpt>
      <trkpt lat="42.813381" lon="0.656976">
        <ele>1680.4</ele>
        <time>2019-11-24T15:35:17Z</time>
      </trkpt>
      <trkpt lat="42.813371" lon="0.656845">
        <ele>1678.8</ele>
        <time>2019-11-24T15:35:30Z</time>
      </trkpt>
      <trkpt lat="42.813352" lon="0.656718">
        <ele>1677.1</ele>
        <time>2019-11-24T15:35:42Z</time>
      </trkpt>
      <trkpt lat="42.813347" lon="0.656603">
        <ele>1677.1</ele>
        <time>2019-11-24T15:39:06Z</time>
      </trkpt>
      <trkpt lat="42.813295" lon="0.656510">
        <ele>1676.2</ele>
        <time>2019-11-24T15:39:19Z</time>
      </trkpt>
      <trkpt lat="42.813273" lon="0.656384">
        <ele>1676.3</ele>
        <time>2019-11-24T15:39:30Z</time>
      </trkpt>
      <trkpt lat="42.813293" lon="0.656250">
        <ele>1673.9</ele>
        <time>2019-11-24T15:39:41Z</time>
      </trkpt>
      <trkpt lat="42.813312" lon="0.656115">
        <ele>1672.2</ele>
        <time>2019-11-24T15:39:51Z</time>
      </trkpt>
      <trkpt lat="42.813308" lon="0.655982">
        <ele>1669.5</ele>
        <time>2019-11-24T15:40:00Z</time>
      </trkpt>
      <trkpt lat="42.813310" lon="0.655846">
        <ele>1667.0</ele>
        <time>2019-11-24T15:40:11Z</time>
      </trkpt>
      <trkpt lat="42.813291" lon="0.655721">
        <ele>1665.3</ele>
        <time>2019-11-24T15:40:21Z</time>
      </trkpt>
      <trkpt lat="42.813262" lon="0.655596">
        <ele>1663.9</ele>
        <time>2019-11-24T15:40:32Z</time>
      </trkpt>
      <trkpt lat="42.813291" lon="0.655476">
        <ele>1660.3</ele>
        <time>2019-11-24T15:40:46Z</time>
      </trkpt>
      <trkpt lat="42.813343" lon="0.655374">
        <ele>1653.8</ele>
        <time>2019-11-24T15:41:06Z</time>
      </trkpt>
      <trkpt lat="42.813346" lon="0.655227">
        <ele>1648.5</ele>
        <time>2019-11-24T15:41:20Z</time>
      </trkpt>
      <trkpt lat="42.813384" lon="0.655104">
        <ele>1642.3</ele>
        <time>2019-11-24T15:41:35Z</time>
      </trkpt>
      <trkpt lat="42.813329" lon="0.654996">
        <ele>1636.3</ele>
        <time>2019-11-24T15:41:51Z</time>
      </trkpt>
      <trkpt lat="42.813326" lon="0.654858">
        <ele>1631.3</ele>
        <time>2019-11-24T15:42:07Z</time>
      </trkpt>
      <trkpt lat="42.813322" lon="0.654735">
        <ele>1627.3</ele>
        <time>2019-11-24T15:42:21Z</time>
      </trkpt>
      <trkpt lat="42.813349" lon="0.654577">
        <ele>1621.3</ele>
        <time>2019-11-24T15:42:37Z</time>
      </trkpt>
      <trkpt lat="42.813354" lon="0.654436">
        <ele>1616.4</ele>
        <time>2019-11-24T15:42:51Z</time>
      </trkpt>
      <trkpt lat="42.813384" lon="0.654333">
        <ele>1612.6</ele>
        <time>2019-11-24T15:43:55Z</time>
      </trkpt>
      <trkpt lat="42.813427" lon="0.654191">
        <ele>1609.2</ele>
        <time>2019-11-24T15:44:08Z</time>
      </trkpt>
      <trkpt lat="42.813499" lon="0.654056">
        <ele>1604.9</ele>
        <time>2019-11-24T15:44:22Z</time>
      </trkpt>
      <trkpt lat="42.813513" lon="0.653907">
        <ele>1599.9</ele>
        <time>2019-11-24T15:44:37Z</time>
      </trkpt>
      <trkpt lat="42.813499" lon="0.653741">
        <ele>1595.3</ele>
        <time>2019-11-24T15:44:51Z</time>
      </trkpt>
      <trkpt lat="42.813479" lon="0.653606">
        <ele>1590.6</ele>
        <time>2019-11-24T15:45:05Z</time>
      </trkpt>
      <trkpt lat="42.813459" lon="0.653440">
        <ele>1585.3</ele>
        <time>2019-11-24T15:45:21Z</time>
      </trkpt>
      <trkpt lat="42.813442" lon="0.653285">
        <ele>1580.5</ele>
        <time>2019-11-24T15:45:34Z</time>
      </trkpt>
      <trkpt lat="42.813421" lon="0.653141">
        <ele>1575.2</ele>
        <time>2019-11-24T15:45:48Z</time>
      </trkpt>
      <trkpt lat="42.813420" lon="0.652985">
        <ele>1570.2</ele>
        <time>2019-11-24T15:46:03Z</time>
      </trkpt>
      <trkpt lat="42.813430" lon="0.652804">
        <ele>1564.5</ele>
        <time>2019-11-24T15:46:24Z</time>
      </trkpt>
      <trkpt lat="42.813428" lon="0.652646">
        <ele>1560.2</ele>
        <time>2019-11-24T15:46:40Z</time>
      </trkpt>
      <trkpt lat="42.813397" lon="0.652499">
        <ele>1558.5</ele>
        <time>2019-11-24T15:47:24Z</time>
      </trkpt>
      <trkpt lat="42.813374" lon="0.652370">
        <ele>1555.9</ele>
        <time>2019-11-24T15:51:32Z</time>
      </trkpt>
      <trkpt lat="42.813358" lon="0.652237">
        <ele>1553.9</ele>
        <time>2019-11-24T15:51:43Z</time>
      </trkpt>
      <trkpt lat="42.813329" lon="0.652113">
        <ele>1548.2</ele>
        <time>2019-11-24T15:51:57Z</time>
      </trkpt>
      <trkpt lat="42.813277" lon="0.652007">
        <ele>1543.8</ele>
        <time>2019-11-24T15:52:11Z</time>
      </trkpt>
      <trkpt lat="42.813251" lon="0.651879">
        <ele>1539.3</ele>
        <time>2019-11-24T15:52:26Z</time>
      </trkpt>
      <trkpt lat="42.813250" lon="0.651739">
        <ele>1533.4</ele>
        <time>2019-11-24T15:52:41Z</time>
      </trkpt>
      <trkpt lat="42.813235" lon="0.651611">
        <ele>1528.6</ele>
        <time>2019-11-24T15:52:53Z</time>
      </trkpt>
      <trkpt lat="42.813216" lon="0.651502">
        <ele>1523.7</ele>
        <time>2019-11-24T15:53:06Z</time>
      </trkpt>
      <trkpt lat="42.813203" lon="0.651369">
        <ele>1518.3</ele>
        <time>2019-11-24T15:53:20Z</time>
      </trkpt>
      <trkpt lat="42.813194" lon="0.651231">
        <ele>1513.7</ele>
        <time>2019-11-24T15:53:34Z</time>
      </trkpt>
      <trkpt lat="42.813190" lon="0.651096">
        <ele>1507.9</ele>
        <time>2019-11-24T15:53:46Z</time>
      </trkpt>
      <trkpt lat="42.813178" lon="0.650933">
        <ele>1504.1</ele>
        <time>2019-11-24T15:54:02Z</time>
      </trkpt>
      <trkpt lat="42.813179" lon="0.650800">
        <ele>1497.6</ele>
        <time>2019-11-24T15:54:23Z</time>
      </trkpt>
      <trkpt lat="42.813124" lon="0.650668">
        <ele>1493.1</ele>
        <time>2019-11-24T15:54:39Z</time>
      </trkpt>
      <trkpt lat="42.813109" lon="0.650493">
        <ele>1488.3</ele>
        <time>2019-11-24T15:54:53Z</time>
      </trkpt>
      <trkpt lat="42.813155" lon="0.650347">
        <ele>1484.8</ele>
        <time>2019-11-24T15:55:21Z</time>
      </trkpt>
      <trkpt lat="42.813151" lon="0.650219">
        <ele>1479.7</ele>
        <time>2019-11-24T15:55:38Z</time>
      </trkpt>
      <trkpt lat="42.813123" lon="0.650083">
        <ele>1473.2</ele>
        <time>2019-11-24T15:55:56Z</time>
      </trkpt>
      <trkpt lat="42.813164" lon="0.649960">
        <ele>1466.5</ele>
        <time>2019-11-24T15:56:18Z</time>
      </trkpt>
      <trkpt lat="42.813150" lon="0.649963">
        <ele>1466.1</ele>
        <time>2019-11-24T15:57:37Z</time>
      </trkpt>
      <trkpt lat="42.813129" lon="0.649908">
        <ele>1465.1</ele>
        <time>2019-11-24T15:59:24Z</time>
      </trkpt>
      <trkpt lat="42.813120" lon="0.649912">
        <ele>1467.7</ele>
        <time>2019-11-24T16:03:31Z</time>
      </trkpt>
      <trkpt lat="42.813165" lon="0.649770">
        <ele>1460.8</ele>
        <time>2019-11-24T16:03:55Z</time>
      </trkpt>
      <trkpt lat="42.813193" lon="0.649639">
        <ele>1455.9</ele>
        <time>2019-11-24T16:04:17Z</time>
      </trkpt>
      <trkpt lat="42.813155" lon="0.649501">
        <ele>1448.9</ele>
        <time>2019-11-24T16:04:39Z</time>
      </trkpt>
      <trkpt lat="42.813162" lon="0.649327">
        <ele>1443.8</ele>
        <time>2019-11-24T16:04:55Z</time>
      </trkpt>
      <trkpt lat="42.813105" lon="0.649205">
        <ele>1440.4</ele>
        <time>2019-11-24T16:05:13Z</time>
      </trkpt>
      <trkpt lat="42.813099" lon="0.649004">
        <ele>1435.2</ele>
        <time>2019-11-24T16:05:32Z</time>
      </trkpt>
      <trkpt lat="42.813064" lon="0.648848">
        <ele>1433.6</ele>
        <time>2019-11-24T16:05:51Z</time>
      </trkpt>
      <trkpt lat="42.813077" lon="0.648700">
        <ele>1429.8</ele>
        <time>2019-11-24T16:06:07Z</time>
      </trkpt>
      <trkpt lat="42.813078" lon="0.648569">
        <ele>1425.9</ele>
        <time>2019-11-24T16:06:19Z</time>
      </trkpt>
      <trkpt lat="42.813138" lon="0.648447">
        <ele>1421.5</ele>
        <time>2019-11-24T16:06:34Z</time>
      </trkpt>
      <trkpt lat="42.813203" lon="0.648362">
        <ele>1416.3</ele>
        <time>2019-11-24T16:06:54Z</time>
      </trkpt>
      <trkpt lat="42.813273" lon="0.648309">
        <ele>1413.1</ele>
        <time>2019-11-24T16:08:06Z</time>
      </trkpt>
      <trkpt lat="42.813221" lon="0.648213">
        <ele>1413.3</ele>
        <time>2019-11-24T16:08:22Z</time>
      </trkpt>
      <trkpt lat="42.813170" lon="0.648219">
        <ele>1414.7</ele>
        <time>2019-11-24T16:11:11Z</time>
      </trkpt>
      <trkpt lat="42.813092" lon="0.648258">
        <ele>1414.9</ele>
        <time>2019-11-24T16:12:06Z</time>
      </trkpt>
      <trkpt lat="42.813006" lon="0.648321">
        <ele>1414.9</ele>
        <time>2019-11-24T16:12:16Z</time>
      </trkpt>
      <trkpt lat="42.812921" lon="0.648400">
        <ele>1414.9</ele>
        <time>2019-11-24T16:12:25Z</time>
      </trkpt>
      <trkpt lat="42.812839" lon="0.648483">
        <ele>1414.9</ele>
        <time>2019-11-24T16:12:34Z</time>
      </trkpt>
      <trkpt lat="42.812778" lon="0.648593">
        <ele>1415.0</ele>
        <time>2019-11-24T16:12:42Z</time>
      </trkpt>
      <trkpt lat="42.812713" lon="0.648711">
        <ele>1415.8</ele>
        <time>2019-11-24T16:12:52Z</time>
      </trkpt>
      <trkpt lat="42.812695" lon="0.648850">
        <ele>1415.8</ele>
        <time>2019-11-24T16:13:01Z</time>
      </trkpt>
      <trkpt lat="42.812676" lon="0.649010">
        <ele>1415.8</ele>
        <time>2019-11-24T16:13:11Z</time>
      </trkpt>
      <trkpt lat="42.812644" lon="0.649170">
        <ele>1416.6</ele>
        <time>2019-11-24T16:13:22Z</time>
      </trkpt>
      <trkpt lat="42.812576" lon="0.649329">
        <ele>1416.5</ele>
        <time>2019-11-24T16:13:34Z</time>
      </trkpt>
      <trkpt lat="42.812514" lon="0.649484">
        <ele>1416.4</ele>
        <time>2019-11-24T16:13:47Z</time>
      </trkpt>
      <trkpt lat="42.812466" lon="0.649631">
        <ele>1417.1</ele>
        <time>2019-11-24T16:14:09Z</time>
      </trkpt>
      <trkpt lat="42.812408" lon="0.649771">
        <ele>1417.0</ele>
        <time>2019-11-24T16:14:20Z</time>
      </trkpt>
      <trkpt lat="42.812337" lon="0.649890">
        <ele>1416.9</ele>
        <time>2019-11-24T16:14:33Z</time>
      </trkpt>
      <trkpt lat="42.812266" lon="0.650039">
        <ele>1417.5</ele>
        <time>2019-11-24T16:14:46Z</time>
      </trkpt>
      <trkpt lat="42.812197" lon="0.650174">
        <ele>1417.4</ele>
        <time>2019-11-24T16:14:57Z</time>
      </trkpt>
      <trkpt lat="42.812139" lon="0.650316">
        <ele>1418.1</ele>
        <time>2019-11-24T16:15:07Z</time>
      </trkpt>
      <trkpt lat="42.812082" lon="0.650454">
        <ele>1418.8</ele>
        <time>2019-11-24T16:15:16Z</time>
      </trkpt>
      <trkpt lat="42.812022" lon="0.650586">
        <ele>1419.5</ele>
        <time>2019-11-24T16:15:25Z</time>
      </trkpt>
      <trkpt lat="42.811978" lon="0.650741">
        <ele>1420.2</ele>
        <time>2019-11-24T16:15:35Z</time>
      </trkpt>
      <trkpt lat="42.811911" lon="0.650911">
        <ele>1420.2</ele>
        <time>2019-11-24T16:15:47Z</time>
      </trkpt>
      <trkpt lat="42.811847" lon="0.651043">
        <ele>1420.9</ele>
        <time>2019-11-24T16:15:57Z</time>
      </trkpt>
      <trkpt lat="42.811793" lon="0.651182">
        <ele>1421.8</ele>
        <time>2019-11-24T16:16:09Z</time>
      </trkpt>
      <trkpt lat="42.811725" lon="0.651360">
        <ele>1422.6</ele>
        <time>2019-11-24T16:16:20Z</time>
      </trkpt>
      <trkpt lat="42.811650" lon="0.651517">
        <ele>1422.5</ele>
        <time>2019-11-24T16:16:30Z</time>
      </trkpt>
      <trkpt lat="42.811577" lon="0.651658">
        <ele>1423.3</ele>
        <time>2019-11-24T16:16:41Z</time>
      </trkpt>
      <trkpt lat="42.811485" lon="0.651780">
        <ele>1423.3</ele>
        <time>2019-11-24T16:16:53Z</time>
      </trkpt>
      <trkpt lat="42.811381" lon="0.651901">
        <ele>1423.2</ele>
        <time>2019-11-24T16:17:03Z</time>
      </trkpt>
      <trkpt lat="42.811280" lon="0.652003">
        <ele>1424.0</ele>
        <time>2019-11-24T16:17:13Z</time>
      </trkpt>
      <trkpt lat="42.811195" lon="0.652117">
        <ele>1423.9</ele>
        <time>2019-11-24T16:17:24Z</time>
      </trkpt>
      <trkpt lat="42.811109" lon="0.652240">
        <ele>1424.7</ele>
        <time>2019-11-24T16:17:35Z</time>
      </trkpt>
      <trkpt lat="42.811019" lon="0.652352">
        <ele>1424.7</ele>
        <time>2019-11-24T16:17:45Z</time>
      </trkpt>
      <trkpt lat="42.810946" lon="0.652466">
        <ele>1425.5</ele>
        <time>2019-11-24T16:17:54Z</time>
      </trkpt>
      <trkpt lat="42.810877" lon="0.652584">
        <ele>1425.5</ele>
        <time>2019-11-24T16:18:04Z</time>
      </trkpt>
      <trkpt lat="42.810796" lon="0.652745">
        <ele>1425.5</ele>
        <time>2019-11-24T16:18:15Z</time>
      </trkpt>
      <trkpt lat="42.810732" lon="0.652902">
        <ele>1426.5</ele>
        <time>2019-11-24T16:18:26Z</time>
      </trkpt>
      <trkpt lat="42.810676" lon="0.653082">
        <ele>1427.3</ele>
        <time>2019-11-24T16:18:39Z</time>
      </trkpt>
      <trkpt lat="42.810632" lon="0.653261">
        <ele>1428.2</ele>
        <time>2019-11-24T16:18:50Z</time>
      </trkpt>
      <trkpt lat="42.810604" lon="0.653399">
        <ele>1428.1</ele>
        <time>2019-11-24T16:19:00Z</time>
      </trkpt>
      <trkpt lat="42.810529" lon="0.653522">
        <ele>1428.9</ele>
        <time>2019-11-24T16:19:09Z</time>
      </trkpt>
      <trkpt lat="42.810469" lon="0.653636">
        <ele>1428.8</ele>
        <time>2019-11-24T16:19:18Z</time>
      </trkpt>
      <trkpt lat="42.810411" lon="0.653782">
        <ele>1429.5</ele>
        <time>2019-11-24T16:19:28Z</time>
      </trkpt>
      <trkpt lat="42.810352" lon="0.653931">
        <ele>1429.5</ele>
        <time>2019-11-24T16:19:38Z</time>
      </trkpt>
      <trkpt lat="42.810299" lon="0.654051">
        <ele>1429.5</ele>
        <time>2019-11-24T16:19:47Z</time>
      </trkpt>
      <trkpt lat="42.809946" lon="0.653987">
        <ele>1420.8</ele>
        <time>2019-11-24T16:24:55Z</time>
      </trkpt>
      <trkpt lat="42.809941" lon="0.653858">
        <ele>1418.0</ele>
        <time>2019-11-24T16:25:06Z</time>
      </trkpt>
      <trkpt lat="42.809914" lon="0.653737">
        <ele>1414.7</ele>
        <time>2019-11-24T16:25:19Z</time>
      </trkpt>
      <trkpt lat="42.809872" lon="0.653616">
        <ele>1411.3</ele>
        <time>2019-11-24T16:25:32Z</time>
      </trkpt>
      <trkpt lat="42.809827" lon="0.653486">
        <ele>1406.5</ele>
        <time>2019-11-24T16:25:46Z</time>
      </trkpt>
      <trkpt lat="42.809783" lon="0.653369">
        <ele>1402.0</ele>
        <time>2019-11-24T16:25:59Z</time>
      </trkpt>
      <trkpt lat="42.809753" lon="0.653260">
        <ele>1398.4</ele>
        <time>2019-11-24T16:26:12Z</time>
      </trkpt>
      <trkpt lat="42.809710" lon="0.653154">
        <ele>1395.0</ele>
        <time>2019-11-24T16:26:37Z</time>
      </trkpt>
      <trkpt lat="42.809655" lon="0.653034">
        <ele>1390.9</ele>
        <time>2019-11-24T16:26:47Z</time>
      </trkpt>
      <trkpt lat="42.809600" lon="0.652938">
        <ele>1388.2</ele>
        <time>2019-11-24T16:26:57Z</time>
      </trkpt>
      <trkpt lat="42.809539" lon="0.652859">
        <ele>1384.6</ele>
        <time>2019-11-24T16:27:07Z</time>
      </trkpt>
      <trkpt lat="42.809471" lon="0.652779">
        <ele>1381.6</ele>
        <time>2019-11-24T16:27:17Z</time>
      </trkpt>
      <trkpt lat="42.809406" lon="0.652687">
        <ele>1378.3</ele>
        <time>2019-11-24T16:27:29Z</time>
      </trkpt>
      <trkpt lat="42.809360" lon="0.652583">
        <ele>1375.6</ele>
        <time>2019-11-24T16:27:40Z</time>
      </trkpt>
      <trkpt lat="42.809339" lon="0.652468">
        <ele>1372.9</ele>
        <time>2019-11-24T16:27:50Z</time>
      </trkpt>
      <trkpt lat="42.809349" lon="0.652343">
        <ele>1371.1</ele>
        <time>2019-11-24T16:28:01Z</time>
      </trkpt>
      <trkpt lat="42.809361" lon="0.652218">
        <ele>1370.2</ele>
        <time>2019-11-24T16:28:15Z</time>
      </trkpt>
      <trkpt lat="42.809376" lon="0.652084">
        <ele>1369.4</ele>
        <time>2019-11-24T16:28:26Z</time>
      </trkpt>
      <trkpt lat="42.809362" lon="0.652002">
        <ele>1369.5</ele>
        <time>2019-11-24T16:29:05Z</time>
      </trkpt>
      <trkpt lat="42.809348" lon="0.652012">
        <ele>1369.6</ele>
        <time>2019-11-24T16:29:31Z</time>
      </trkpt>
      <trkpt lat="42.809325" lon="0.651947">
        <ele>1369.8</ele>
        <time>2019-11-24T16:30:36Z</time>
      </trkpt>
      <trkpt lat="42.809292" lon="0.651849">
        <ele>1366.3</ele>
        <time>2019-11-24T16:30:46Z</time>
      </trkpt>
      <trkpt lat="42.809226" lon="0.651765">
        <ele>1363.8</ele>
        <time>2019-11-24T16:31:03Z</time>
      </trkpt>
      <trkpt lat="42.809152" lon="0.651647">
        <ele>1356.4</ele>
        <time>2019-11-24T16:31:19Z</time>
      </trkpt>
      <trkpt lat="42.809127" lon="0.651536">
        <ele>1353.0</ele>
        <time>2019-11-24T16:31:33Z</time>
      </trkpt>
      <trkpt lat="42.809209" lon="0.651438">
        <ele>1349.2</ele>
        <time>2019-11-24T16:31:45Z</time>
      </trkpt>
      <trkpt lat="42.809327" lon="0.651408">
        <ele>1342.4</ele>
        <time>2019-11-24T16:32:04Z</time>
      </trkpt>
      <trkpt lat="42.809484" lon="0.651407">
        <ele>1337.7</ele>
        <time>2019-11-24T16:32:20Z</time>
      </trkpt>
      <trkpt lat="42.809667" lon="0.651328">
        <ele>1335.1</ele>
        <time>2019-11-24T16:32:34Z</time>
      </trkpt>
      <trkpt lat="42.809753" lon="0.651132">
        <ele>1330.3</ele>
        <time>2019-11-24T16:32:49Z</time>
      </trkpt>
      <trkpt lat="42.809812" lon="0.650918">
        <ele>1324.9</ele>
        <time>2019-11-24T16:33:05Z</time>
      </trkpt>
      <trkpt lat="42.809841" lon="0.650733">
        <ele>1320.5</ele>
        <time>2019-11-24T16:33:18Z</time>
      </trkpt>
      <trkpt lat="42.809873" lon="0.650585">
        <ele>1317.8</ele>
        <time>2019-11-24T16:33:30Z</time>
      </trkpt>
      <trkpt lat="42.809934" lon="0.650458">
        <ele>1316.0</ele>
        <time>2019-11-24T16:33:41Z</time>
      </trkpt>
      <trkpt lat="42.810002" lon="0.650314">
        <ele>1313.5</ele>
        <time>2019-11-24T16:33:55Z</time>
      </trkpt>
      <trkpt lat="42.810115" lon="0.650171">
        <ele>1311.6</ele>
        <time>2019-11-24T16:34:12Z</time>
      </trkpt>
      <trkpt lat="42.810188" lon="0.650054">
        <ele>1309.8</ele>
        <time>2019-11-24T16:34:27Z</time>
      </trkpt>
      <trkpt lat="42.810226" lon="0.649979">
        <ele>1309.1</ele>
        <time>2019-11-24T16:35:00Z</time>
      </trkpt>
      <trkpt lat="42.810265" lon="0.649854">
        <ele>1305.3</ele>
        <time>2019-11-24T16:35:14Z</time>
      </trkpt>
      <trkpt lat="42.810284" lon="0.649685">
        <ele>1300.7</ele>
        <time>2019-11-24T16:35:25Z</time>
      </trkpt>
      <trkpt lat="42.810264" lon="0.649520">
        <ele>1296.2</ele>
        <time>2019-11-24T16:35:37Z</time>
      </trkpt>
      <trkpt lat="42.810264" lon="0.649387">
        <ele>1294.6</ele>
        <time>2019-11-24T16:35:57Z</time>
      </trkpt>
      <trkpt lat="42.810332" lon="0.649259">
        <ele>1292.1</ele>
        <time>2019-11-24T16:36:08Z</time>
      </trkpt>
      <trkpt lat="42.810372" lon="0.649122">
        <ele>1287.9</ele>
        <time>2019-11-24T16:36:22Z</time>
      </trkpt>
      <trkpt lat="42.810448" lon="0.648994">
        <ele>1284.7</ele>
        <time>2019-11-24T16:36:34Z</time>
      </trkpt>
      <trkpt lat="42.810524" lon="0.648896">
        <ele>1281.9</ele>
        <time>2019-11-24T16:36:49Z</time>
      </trkpt>
      <trkpt lat="42.810601" lon="0.648714">
        <ele>1279.5</ele>
        <time>2019-11-24T16:37:02Z</time>
      </trkpt>
      <trkpt lat="42.810657" lon="0.648566">
        <ele>1276.0</ele>
        <time>2019-11-24T16:37:14Z</time>
      </trkpt>
      <trkpt lat="42.810705" lon="0.648414">
        <ele>1272.7</ele>
        <time>2019-11-24T16:37:27Z</time>
      </trkpt>
      <trkpt lat="42.810748" lon="0.648211">
        <ele>1269.7</ele>
        <time>2019-11-24T16:37:40Z</time>
      </trkpt>
      <trkpt lat="42.810776" lon="0.648048">
        <ele>1266.4</ele>
        <time>2019-11-24T16:37:53Z</time>
      </trkpt>
      <trkpt lat="42.810830" lon="0.647912">
        <ele>1262.1</ele>
        <time>2019-11-24T16:38:07Z</time>
      </trkpt>
      <trkpt lat="42.810872" lon="0.647791">
        <ele>1258.7</ele>
        <time>2019-11-24T16:38:29Z</time>
      </trkpt>
      <trkpt lat="42.810914" lon="0.647643">
        <ele>1255.3</ele>
        <time>2019-11-24T16:38:44Z</time>
      </trkpt>
      <trkpt lat="42.810929" lon="0.647495">
        <ele>1250.6</ele>
        <time>2019-11-24T16:38:59Z</time>
      </trkpt>
      <trkpt lat="42.810987" lon="0.647276">
        <ele>1246.0</ele>
        <time>2019-11-24T16:39:16Z</time>
      </trkpt>
      <trkpt lat="42.811066" lon="0.647108">
        <ele>1241.7</ele>
        <time>2019-11-24T16:39:32Z</time>
      </trkpt>
      <trkpt lat="42.811131" lon="0.646966">
        <ele>1236.9</ele>
        <time>2019-11-24T16:39:48Z</time>
      </trkpt>
      <trkpt lat="42.811214" lon="0.646839">
        <ele>1236.0</ele>
        <time>2019-11-24T16:40:04Z</time>
      </trkpt>
      <trkpt lat="42.811289" lon="0.646663">
        <ele>1231.8</ele>
        <time>2019-11-24T16:40:20Z</time>
      </trkpt>
      <trkpt lat="42.811388" lon="0.646472">
        <ele>1226.9</ele>
        <time>2019-11-24T16:40:37Z</time>
      </trkpt>
      <trkpt lat="42.811481" lon="0.646287">
        <ele>1223.3</ele>
        <time>2019-11-24T16:40:50Z</time>
      </trkpt>
      <trkpt lat="42.811559" lon="0.646109">
        <ele>1219.2</ele>
        <time>2019-11-24T16:41:06Z</time>
      </trkpt>
      <trkpt lat="42.811636" lon="0.645933">
        <ele>1213.9</ele>
        <time>2019-11-24T16:41:23Z</time>
      </trkpt>
      <trkpt lat="42.811721" lon="0.645733">
        <ele>1207.7</ele>
        <time>2019-11-24T16:41:40Z</time>
      </trkpt>
      <trkpt lat="42.811807" lon="0.645568">
        <ele>1203.0</ele>
        <time>2019-11-24T16:41:55Z</time>
      </trkpt>
      <trkpt lat="42.811862" lon="0.645380">
        <ele>1196.6</ele>
        <time>2019-11-24T16:42:14Z</time>
      </trkpt>
      <trkpt lat="42.811939" lon="0.645192">
        <ele>1190.0</ele>
        <time>2019-11-24T16:42:34Z</time>
      </trkpt>
      <trkpt lat="42.812018" lon="0.644997">
        <ele>1184.9</ele>
        <time>2019-11-24T16:42:53Z</time>
      </trkpt>
      <trkpt lat="42.812090" lon="0.644885">
        <ele>1181.8</ele>
        <time>2019-11-24T16:43:14Z</time>
      </trkpt>
      <trkpt lat="42.812189" lon="0.644684">
        <ele>1175.9</ele>
        <time>2019-11-24T16:43:29Z</time>
      </trkpt>
      <trkpt lat="42.812282" lon="0.644495">
        <ele>1170.6</ele>
        <time>2019-11-24T16:43:44Z</time>
      </trkpt>
      <trkpt lat="42.812394" lon="0.644348">
        <ele>1165.2</ele>
        <time>2019-11-24T16:43:59Z</time>
      </trkpt>
      <trkpt lat="42.812508" lon="0.644208">
        <ele>1161.9</ele>
        <time>2019-11-24T16:44:12Z</time>
      </trkpt>
      <trkpt lat="42.812600" lon="0.644075">
        <ele>1159.3</ele>
        <time>2019-11-24T16:44:24Z</time>
      </trkpt>
      <trkpt lat="42.812691" lon="0.643984">
        <ele>1155.4</ele>
        <time>2019-11-24T16:44:38Z</time>
      </trkpt>
      <trkpt lat="42.812792" lon="0.643832">
        <ele>1153.2</ele>
        <time>2019-11-24T16:44:52Z</time>
      </trkpt>
      <trkpt lat="42.812916" lon="0.643707">
        <ele>1149.8</ele>
        <time>2019-11-24T16:45:07Z</time>
      </trkpt>
      <trkpt lat="42.813025" lon="0.643593">
        <ele>1145.1</ele>
        <time>2019-11-24T16:45:21Z</time>
      </trkpt>
      <trkpt lat="42.813164" lon="0.643528">
        <ele>1139.9</ele>
        <time>2019-11-24T16:45:38Z</time>
      </trkpt>
      <trkpt lat="42.813319" lon="0.643444">
        <ele>1134.0</ele>
        <time>2019-11-24T16:45:56Z</time>
      </trkpt>
      <trkpt lat="42.813468" lon="0.643394">
        <ele>1129.6</ele>
        <time>2019-11-24T16:46:11Z</time>
      </trkpt>
      <trkpt lat="42.813610" lon="0.643320">
        <ele>1124.3</ele>
        <time>2019-11-24T16:46:27Z</time>
      </trkpt>
      <trkpt lat="42.813768" lon="0.643283">
        <ele>1118.8</ele>
        <time>2019-11-24T16:46:45Z</time>
      </trkpt>
      <trkpt lat="42.813909" lon="0.643178">
        <ele>1112.0</ele>
        <time>2019-11-24T16:47:04Z</time>
      </trkpt>
      <trkpt lat="42.814040" lon="0.643081">
        <ele>1105.1</ele>
        <time>2019-11-24T16:47:22Z</time>
      </trkpt>
      <trkpt lat="42.814192" lon="0.642941">
        <ele>1099.2</ele>
        <time>2019-11-24T16:47:35Z</time>
      </trkpt>
      <trkpt lat="42.814346" lon="0.642809">
        <ele>1094.4</ele>
        <time>2019-11-24T16:47:51Z</time>
      </trkpt>
      <trkpt lat="42.814386" lon="0.642622">
        <ele>1088.7</ele>
        <time>2019-11-24T16:48:07Z</time>
      </trkpt>
      <trkpt lat="42.814477" lon="0.642537">
        <ele>1082.3</ele>
        <time>2019-11-24T16:48:21Z</time>
      </trkpt>
      <trkpt lat="42.814532" lon="0.642493">
        <ele>1081.1</ele>
        <time>2019-11-24T16:48:53Z</time>
      </trkpt>
      <trkpt lat="42.814516" lon="0.642434">
        <ele>1081.5</ele>
        <time>2019-11-24T16:52:02Z</time>
      </trkpt>
      <trkpt lat="42.814438" lon="0.642391">
        <ele>1078.0</ele>
        <time>2019-11-24T16:52:50Z</time>
      </trkpt>
      <trkpt lat="42.814359" lon="0.642264">
        <ele>1073.4</ele>
        <time>2019-11-24T16:53:03Z</time>
      </trkpt>
      <trkpt lat="42.814304" lon="0.642130">
        <ele>1069.9</ele>
        <time>2019-11-24T16:53:14Z</time>
      </trkpt>
      <trkpt lat="42.814238" lon="0.642001">
        <ele>1067.4</ele>
        <time>2019-11-24T16:53:36Z</time>
      </trkpt>
      <trkpt lat="42.814189" lon="0.641917">
        <ele>1063.8</ele>
        <time>2019-11-24T16:53:48Z</time>
      </trkpt>
      <trkpt lat="42.814171" lon="0.641743">
        <ele>1059.2</ele>
        <time>2019-11-24T16:54:02Z</time>
      </trkpt>
      <trkpt lat="42.814133" lon="0.641624">
        <ele>1055.6</ele>
        <time>2019-11-24T16:54:14Z</time>
      </trkpt>
      <trkpt lat="42.814127" lon="0.641482">
        <ele>1053.1</ele>
        <time>2019-11-24T16:54:34Z</time>
      </trkpt>
      <trkpt lat="42.814109" lon="0.641287">
        <ele>1050.6</ele>
        <time>2019-11-24T16:54:47Z</time>
      </trkpt>
      <trkpt lat="42.814086" lon="0.641160">
        <ele>1048.6</ele>
        <time>2019-11-24T16:55:07Z</time>
      </trkpt>
      <trkpt lat="42.814023" lon="0.641025">
        <ele>1046.0</ele>
        <time>2019-11-24T16:55:23Z</time>
      </trkpt>
      <trkpt lat="42.813942" lon="0.640900">
        <ele>1043.1</ele>
        <time>2019-11-24T16:55:36Z</time>
      </trkpt>
      <trkpt lat="42.813960" lon="0.640831">
        <ele>1040.5</ele>
        <time>2019-11-24T16:56:15Z</time>
      </trkpt>
      <trkpt lat="42.813990" lon="0.640647">
        <ele>1040.9</ele>
        <time>2019-11-24T16:56:38Z</time>
      </trkpt>
      <trkpt lat="42.814001" lon="0.640527">
        <ele>1042.0</ele>
        <time>2019-11-24T16:56:48Z</time>
      </trkpt>
      <trkpt lat="42.814003" lon="0.640387">
        <ele>1043.8</ele>
        <time>2019-11-24T16:56:58Z</time>
      </trkpt>
      <trkpt lat="42.814029" lon="0.640228">
        <ele>1045.9</ele>
        <time>2019-11-24T16:57:06Z</time>
      </trkpt>
      <trkpt lat="42.814071" lon="0.640085">
        <ele>1046.6</ele>
        <time>2019-11-24T16:57:15Z</time>
      </trkpt>
      <trkpt lat="42.814126" lon="0.639940">
        <ele>1047.6</ele>
        <time>2019-11-24T16:57:23Z</time>
      </trkpt>
      <trkpt lat="42.814208" lon="0.639787">
        <ele>1049.3</ele>
        <time>2019-11-24T16:57:32Z</time>
      </trkpt>
      <trkpt lat="42.814259" lon="0.639629">
        <ele>1049.3</ele>
        <time>2019-11-24T16:57:40Z</time>
      </trkpt>
      <trkpt lat="42.814278" lon="0.639457">
        <ele>1050.0</ele>
        <time>2019-11-24T16:57:49Z</time>
      </trkpt>
      <trkpt lat="42.814305" lon="0.639289">
        <ele>1050.0</ele>
        <time>2019-11-24T16:57:57Z</time>
      </trkpt>
      <trkpt lat="42.814332" lon="0.639146">
        <ele>1051.8</ele>
        <time>2019-11-24T16:58:05Z</time>
      </trkpt>
      <trkpt lat="42.814359" lon="0.639004">
        <ele>1053.5</ele>
        <time>2019-11-24T16:58:12Z</time>
      </trkpt>
      <trkpt lat="42.814387" lon="0.638861">
        <ele>1053.5</ele>
        <time>2019-11-24T16:58:19Z</time>
      </trkpt>
      <trkpt lat="42.814417" lon="0.638727">
        <ele>1054.3</ele>
        <time>2019-11-24T16:58:26Z</time>
      </trkpt>
      <trkpt lat="42.814443" lon="0.638587">
        <ele>1055.9</ele>
        <time>2019-11-24T16:58:35Z</time>
      </trkpt>
      <trkpt lat="42.814476" lon="0.638448">
        <ele>1056.8</ele>
        <time>2019-11-24T16:58:44Z</time>
      </trkpt>
      <trkpt lat="42.814494" lon="0.638305">
        <ele>1057.7</ele>
        <time>2019-11-24T16:58:53Z</time>
      </trkpt>
      <trkpt lat="42.814529" lon="0.638169">
        <ele>1058.4</ele>
        <time>2019-11-24T16:59:01Z</time>
      </trkpt>
      <trkpt lat="42.814583" lon="0.638035">
        <ele>1058.4</ele>
        <time>2019-11-24T16:59:09Z</time>
      </trkpt>
      <trkpt lat="42.814616" lon="0.637883">
        <ele>1060.2</ele>
        <time>2019-11-24T16:59:18Z</time>
      </trkpt>
      <trkpt lat="42.814665" lon="0.637759">
        <ele>1060.2</ele>
        <time>2019-11-24T16:59:27Z</time>
      </trkpt>
      <trkpt lat="42.814696" lon="0.637621">
        <ele>1060.2</ele>
        <time>2019-11-24T16:59:35Z</time>
      </trkpt>
      <trkpt lat="42.814712" lon="0.637466">
        <ele>1060.2</ele>
        <time>2019-11-24T16:59:43Z</time>
      </trkpt>
      <trkpt lat="42.814717" lon="0.637316">
        <ele>1060.1</ele>
        <time>2019-11-24T16:59:53Z</time>
      </trkpt>
      <trkpt lat="42.814742" lon="0.637168">
        <ele>1060.1</ele>
        <time>2019-11-24T17:00:02Z</time>
      </trkpt>
      <trkpt lat="42.814768" lon="0.636995">
        <ele>1060.1</ele>
        <time>2019-11-24T17:00:12Z</time>
      </trkpt>
      <trkpt lat="42.814809" lon="0.636821">
        <ele>1057.7</ele>
        <time>2019-11-24T17:00:24Z</time>
      </trkpt>
      <trkpt lat="42.814904" lon="0.636668">
        <ele>1055.6</ele>
        <time>2019-11-24T17:00:36Z</time>
      </trkpt>
      <trkpt lat="42.814915" lon="0.636504">
        <ele>1053.9</ele>
        <time>2019-11-24T17:00:51Z</time>
      </trkpt>
      <trkpt lat="42.814826" lon="0.636405">
        <ele>1053.8</ele>
        <time>2019-11-24T17:01:06Z</time>
      </trkpt>
      <trkpt lat="42.814750" lon="0.636305">
        <ele>1053.7</ele>
        <time>2019-11-24T17:01:20Z</time>
      </trkpt>
      <trkpt lat="42.814608" lon="0.636224">
        <ele>1055.9</ele>
        <time>2019-11-24T17:01:31Z</time>
      </trkpt>
      <trkpt lat="42.814478" lon="0.636145">
        <ele>1057.7</ele>
        <time>2019-11-24T17:01:41Z</time>
      </trkpt>
      <trkpt lat="42.814396" lon="0.636036">
        <ele>1059.3</ele>
        <time>2019-11-24T17:01:48Z</time>
      </trkpt>
      <trkpt lat="42.814342" lon="0.635924">
        <ele>1060.6</ele>
        <time>2019-11-24T17:01:58Z</time>
      </trkpt>
      <trkpt lat="42.814316" lon="0.635772">
        <ele>1062.1</ele>
        <time>2019-11-24T17:02:08Z</time>
      </trkpt>
      <trkpt lat="42.814309" lon="0.635635">
        <ele>1062.8</ele>
        <time>2019-11-24T17:02:17Z</time>
      </trkpt>
      <trkpt lat="42.814298" lon="0.635477">
        <ele>1063.5</ele>
        <time>2019-11-24T17:02:26Z</time>
      </trkpt>
      <trkpt lat="42.814251" lon="0.635336">
        <ele>1064.2</ele>
        <time>2019-11-24T17:02:33Z</time>
      </trkpt>
      <trkpt lat="42.814213" lon="0.635179">
        <ele>1064.2</ele>
        <time>2019-11-24T17:02:40Z</time>
      </trkpt>
      <trkpt lat="42.814170" lon="0.635030">
        <ele>1065.0</ele>
        <time>2019-11-24T17:02:47Z</time>
      </trkpt>
      <trkpt lat="42.814114" lon="0.634920">
        <ele>1065.0</ele>
        <time>2019-11-24T17:02:53Z</time>
      </trkpt>
      <trkpt lat="42.814053" lon="0.634796">
        <ele>1066.6</ele>
        <time>2019-11-24T17:03:01Z</time>
      </trkpt>
      <trkpt lat="42.813985" lon="0.634658">
        <ele>1067.4</ele>
        <time>2019-11-24T17:03:09Z</time>
      </trkpt>
      <trkpt lat="42.813910" lon="0.634548">
        <ele>1067.3</ele>
        <time>2019-11-24T17:03:16Z</time>
      </trkpt>
      <trkpt lat="42.813839" lon="0.634449">
        <ele>1069.1</ele>
        <time>2019-11-24T17:03:26Z</time>
      </trkpt>
      <trkpt lat="42.813784" lon="0.634341">
        <ele>1069.1</ele>
        <time>2019-11-24T17:03:34Z</time>
      </trkpt>
      <trkpt lat="42.813717" lon="0.634247">
        <ele>1069.0</ele>
        <time>2019-11-24T17:03:41Z</time>
      </trkpt>
      <trkpt lat="42.813669" lon="0.634143">
        <ele>1069.1</ele>
        <time>2019-11-24T17:03:48Z</time>
      </trkpt>
      <trkpt lat="42.813606" lon="0.634046">
        <ele>1069.9</ele>
        <time>2019-11-24T17:03:57Z</time>
      </trkpt>
      <trkpt lat="42.813531" lon="0.633910">
        <ele>1070.7</ele>
        <time>2019-11-24T17:04:06Z</time>
      </trkpt>
      <trkpt lat="42.813458" lon="0.633816">
        <ele>1071.5</ele>
        <time>2019-11-24T17:04:13Z</time>
      </trkpt>
      <trkpt lat="42.813380" lon="0.633713">
        <ele>1072.3</ele>
        <time>2019-11-24T17:04:22Z</time>
      </trkpt>
      <trkpt lat="42.813304" lon="0.633615">
        <ele>1073.2</ele>
        <time>2019-11-24T17:04:30Z</time>
      </trkpt>
      <trkpt lat="42.813246" lon="0.633487">
        <ele>1074.7</ele>
        <time>2019-11-24T17:04:39Z</time>
      </trkpt>
      <trkpt lat="42.813163" lon="0.633406">
        <ele>1075.6</ele>
        <time>2019-11-24T17:04:47Z</time>
      </trkpt>
      <trkpt lat="42.813070" lon="0.633327">
        <ele>1075.6</ele>
        <time>2019-11-24T17:04:55Z</time>
      </trkpt>
      <trkpt lat="42.812976" lon="0.633241">
        <ele>1076.4</ele>
        <time>2019-11-24T17:05:03Z</time>
      </trkpt>
      <trkpt lat="42.812889" lon="0.633164">
        <ele>1076.4</ele>
        <time>2019-11-24T17:05:11Z</time>
      </trkpt>
      <trkpt lat="42.812787" lon="0.633091">
        <ele>1077.2</ele>
        <time>2019-11-24T17:05:19Z</time>
      </trkpt>
      <trkpt lat="42.812735" lon="0.632961">
        <ele>1078.9</ele>
        <time>2019-11-24T17:05:27Z</time>
      </trkpt>
      <trkpt lat="42.812734" lon="0.632822">
        <ele>1079.7</ele>
        <time>2019-11-24T17:05:35Z</time>
      </trkpt>
      <trkpt lat="42.812742" lon="0.632669">
        <ele>1080.6</ele>
        <time>2019-11-24T17:05:44Z</time>
      </trkpt>
      <trkpt lat="42.812740" lon="0.632508">
        <ele>1081.3</ele>
        <time>2019-11-24T17:05:53Z</time>
      </trkpt>
      <trkpt lat="42.812744" lon="0.632356">
        <ele>1083.1</ele>
        <time>2019-11-24T17:06:02Z</time>
      </trkpt>
      <trkpt lat="42.812732" lon="0.632215">
        <ele>1083.9</ele>
        <time>2019-11-24T17:06:10Z</time>
      </trkpt>
      <trkpt lat="42.812733" lon="0.632075">
        <ele>1084.8</ele>
        <time>2019-11-24T17:06:19Z</time>
      </trkpt>
      <trkpt lat="42.812734" lon="0.631937">
        <ele>1086.6</ele>
        <time>2019-11-24T17:06:27Z</time>
      </trkpt>
      <trkpt lat="42.812722" lon="0.631792">
        <ele>1086.6</ele>
        <time>2019-11-24T17:06:35Z</time>
      </trkpt>
      <trkpt lat="42.812731" lon="0.631649">
        <ele>1084.1</ele>
        <time>2019-11-24T17:06:43Z</time>
      </trkpt>
      <trkpt lat="42.812738" lon="0.631500">
        <ele>1084.1</ele>
        <time>2019-11-24T17:06:51Z</time>
      </trkpt>
      <trkpt lat="42.812752" lon="0.631360">
        <ele>1084.1</ele>
        <time>2019-11-24T17:06:59Z</time>
      </trkpt>
      <trkpt lat="42.812771" lon="0.631227">
        <ele>1084.1</ele>
        <time>2019-11-24T17:07:07Z</time>
      </trkpt>
      <trkpt lat="42.812818" lon="0.631078">
        <ele>1084.1</ele>
        <time>2019-11-24T17:07:16Z</time>
      </trkpt>
      <trkpt lat="42.812875" lon="0.630950">
        <ele>1082.4</ele>
        <time>2019-11-24T17:07:26Z</time>
      </trkpt>
      <trkpt lat="42.812939" lon="0.630820">
        <ele>1081.5</ele>
        <time>2019-11-24T17:07:34Z</time>
      </trkpt>
      <trkpt lat="42.812998" lon="0.630696">
        <ele>1079.7</ele>
        <time>2019-11-24T17:07:44Z</time>
      </trkpt>
      <trkpt lat="42.813083" lon="0.630528">
        <ele>1078.0</ele>
        <time>2019-11-24T17:07:56Z</time>
      </trkpt>
      <trkpt lat="42.813183" lon="0.630387">
        <ele>1077.0</ele>
        <time>2019-11-24T17:08:05Z</time>
      </trkpt>
      <trkpt lat="42.813275" lon="0.630298">
        <ele>1075.4</ele>
        <time>2019-11-24T17:08:14Z</time>
      </trkpt>
      <trkpt lat="42.813275" lon="0.630111">
        <ele>1074.6</ele>
        <time>2019-11-24T17:08:27Z</time>
      </trkpt>
      <trkpt lat="42.813248" lon="0.629950">
        <ele>1074.4</ele>
        <time>2019-11-24T17:08:35Z</time>
      </trkpt>
      <trkpt lat="42.813183" lon="0.629830">
        <ele>1073.7</ele>
        <time>2019-11-24T17:08:43Z</time>
      </trkpt>
      <trkpt lat="42.813106" lon="0.629712">
        <ele>1072.8</ele>
        <time>2019-11-24T17:08:51Z</time>
      </trkpt>
      <trkpt lat="42.813036" lon="0.629602">
        <ele>1072.8</ele>
        <time>2019-11-24T17:08:59Z</time>
      </trkpt>
      <trkpt lat="42.812956" lon="0.629494">
        <ele>1072.8</ele>
        <time>2019-11-24T17:09:06Z</time>
      </trkpt>
      <trkpt lat="42.812910" lon="0.629364">
        <ele>1072.9</ele>
        <time>2019-11-24T17:09:14Z</time>
      </trkpt>
      <trkpt lat="42.812871" lon="0.629241">
        <ele>1072.9</ele>
        <time>2019-11-24T17:09:21Z</time>
      </trkpt>
      <trkpt lat="42.812830" lon="0.629105">
        <ele>1072.9</ele>
        <time>2019-11-24T17:09:29Z</time>
      </trkpt>
      <trkpt lat="42.812779" lon="0.628976">
        <ele>1072.9</ele>
        <time>2019-11-24T17:09:37Z</time>
      </trkpt>
      <trkpt lat="42.812732" lon="0.628866">
        <ele>1072.9</ele>
        <time>2019-11-24T17:09:44Z</time>
      </trkpt>
      <trkpt lat="42.812676" lon="0.628754">
        <ele>1073.0</ele>
        <time>2019-11-24T17:09:55Z</time>
      </trkpt>
      <trkpt lat="42.812614" lon="0.628589">
        <ele>1073.1</ele>
        <time>2019-11-24T17:10:07Z</time>
      </trkpt>
      <trkpt lat="42.812510" lon="0.628405">
        <ele>1073.0</ele>
        <time>2019-11-24T17:10:18Z</time>
      </trkpt>
      <trkpt lat="42.812436" lon="0.628265">
        <ele>1075.4</ele>
        <time>2019-11-24T17:10:29Z</time>
      </trkpt>
      <trkpt lat="42.812354" lon="0.628132">
        <ele>1076.2</ele>
        <time>2019-11-24T17:10:38Z</time>
      </trkpt>
      <trkpt lat="42.812258" lon="0.628037">
        <ele>1076.9</ele>
        <time>2019-11-24T17:10:46Z</time>
      </trkpt>
      <trkpt lat="42.812177" lon="0.627938">
        <ele>1076.9</ele>
        <time>2019-11-24T17:10:54Z</time>
      </trkpt>
      <trkpt lat="42.812117" lon="0.627826">
        <ele>1076.9</ele>
        <time>2019-11-24T17:11:02Z</time>
      </trkpt>
      <trkpt lat="42.812088" lon="0.627703">
        <ele>1076.9</ele>
        <time>2019-11-24T17:11:11Z</time>
      </trkpt>
      <trkpt lat="42.812081" lon="0.627558">
        <ele>1072.9</ele>
        <time>2019-11-24T17:11:22Z</time>
      </trkpt>
      <trkpt lat="42.812086" lon="0.627418">
        <ele>1071.2</ele>
        <time>2019-11-24T17:11:32Z</time>
      </trkpt>
      <trkpt lat="42.812098" lon="0.627274">
        <ele>1069.4</ele>
        <time>2019-11-24T17:11:41Z</time>
      </trkpt>
      <trkpt lat="42.812116" lon="0.627130">
        <ele>1066.6</ele>
        <time>2019-11-24T17:11:51Z</time>
      </trkpt>
      <trkpt lat="42.812136" lon="0.626963">
        <ele>1063.8</ele>
        <time>2019-11-24T17:12:00Z</time>
      </trkpt>
      <trkpt lat="42.812115" lon="0.626834">
        <ele>1062.1</ele>
        <time>2019-11-24T17:12:08Z</time>
      </trkpt>
      <trkpt lat="42.812064" lon="0.626707">
        <ele>1060.5</ele>
        <time>2019-11-24T17:12:15Z</time>
      </trkpt>
      <trkpt lat="42.812004" lon="0.626601">
        <ele>1058.7</ele>
        <time>2019-11-24T17:12:22Z</time>
      </trkpt>
      <trkpt lat="42.811955" lon="0.626489">
        <ele>1056.8</ele>
        <time>2019-11-24T17:12:29Z</time>
      </trkpt>
      <trkpt lat="42.811891" lon="0.626391">
        <ele>1054.8</ele>
        <time>2019-11-24T17:12:36Z</time>
      </trkpt>
      <trkpt lat="42.811861" lon="0.626274">
        <ele>1053.0</ele>
        <time>2019-11-24T17:12:44Z</time>
      </trkpt>
      <trkpt lat="42.811820" lon="0.626147">
        <ele>1049.5</ele>
        <time>2019-11-24T17:12:53Z</time>
      </trkpt>
      <trkpt lat="42.811789" lon="0.626024">
        <ele>1046.6</ele>
        <time>2019-11-24T17:13:03Z</time>
      </trkpt>
      <trkpt lat="42.811748" lon="0.625893">
        <ele>1044.2</ele>
        <time>2019-11-24T17:13:14Z</time>
      </trkpt>
      <trkpt lat="42.811713" lon="0.625753">
        <ele>1042.4</ele>
        <time>2019-11-24T17:13:25Z</time>
      </trkpt>
      <trkpt lat="42.811646" lon="0.625599">
        <ele>1040.9</ele>
        <time>2019-11-24T17:13:37Z</time>
      </trkpt>
      <trkpt lat="42.811582" lon="0.625436">
        <ele>1039.2</ele>
        <time>2019-11-24T17:13:45Z</time>
      </trkpt>
      <trkpt lat="42.811503" lon="0.625328">
        <ele>1036.7</ele>
        <time>2019-11-24T17:13:53Z</time>
      </trkpt>
      <trkpt lat="42.811411" lon="0.625218">
        <ele>1034.8</ele>
        <time>2019-11-24T17:14:03Z</time>
      </trkpt>
      <trkpt lat="42.811287" lon="0.625120">
        <ele>1033.1</ele>
        <time>2019-11-24T17:14:12Z</time>
      </trkpt>
      <trkpt lat="42.811190" lon="0.625012">
        <ele>1031.3</ele>
        <time>2019-11-24T17:14:21Z</time>
      </trkpt>
      <trkpt lat="42.811171" lon="0.624858">
        <ele>1029.2</ele>
        <time>2019-11-24T17:14:30Z</time>
      </trkpt>
      <trkpt lat="42.811173" lon="0.624707">
        <ele>1026.7</ele>
        <time>2019-11-24T17:14:39Z</time>
      </trkpt>
      <trkpt lat="42.811205" lon="0.624559">
        <ele>1024.7</ele>
        <time>2019-11-24T17:14:49Z</time>
      </trkpt>
      <trkpt lat="42.811221" lon="0.624417">
        <ele>1024.0</ele>
        <time>2019-11-24T17:15:15Z</time>
      </trkpt>
      <trkpt lat="42.811178" lon="0.624294">
        <ele>1022.3</ele>
        <time>2019-11-24T17:15:23Z</time>
      </trkpt>
      <trkpt lat="42.811109" lon="0.624175">
        <ele>1019.5</ele>
        <time>2019-11-24T17:15:32Z</time>
      </trkpt>
      <trkpt lat="42.811000" lon="0.624124">
        <ele>1016.9</ele>
        <time>2019-11-24T17:15:41Z</time>
      </trkpt>
      <trkpt lat="42.810888" lon="0.624123">
        <ele>1015.1</ele>
        <time>2019-11-24T17:15:50Z</time>
      </trkpt>
      <trkpt lat="42.810787" lon="0.624077">
        <ele>1012.7</ele>
        <time>2019-11-24T17:15:59Z</time>
      </trkpt>
      <trkpt lat="42.810727" lon="0.623962">
        <ele>1009.9</ele>
        <time>2019-11-24T17:16:07Z</time>
      </trkpt>
      <trkpt lat="42.810682" lon="0.623852">
        <ele>1008.2</ele>
        <time>2019-11-24T17:16:14Z</time>
      </trkpt>
      <trkpt lat="42.810652" lon="0.623721">
        <ele>1007.4</ele>
        <time>2019-11-24T17:16:22Z</time>
      </trkpt>
      <trkpt lat="42.810685" lon="0.623594">
        <ele>1004.6</ele>
        <time>2019-11-24T17:16:31Z</time>
      </trkpt>
      <trkpt lat="42.810684" lon="0.623473">
        <ele>1002.7</ele>
        <time>2019-11-24T17:16:38Z</time>
      </trkpt>
      <trkpt lat="42.810665" lon="0.623344">
        <ele>1001.2</ele>
        <time>2019-11-24T17:16:46Z</time>
      </trkpt>
      <trkpt lat="42.810631" lon="0.623203">
        <ele>1000.3</ele>
        <time>2019-11-24T17:16:54Z</time>
      </trkpt>
      <trkpt lat="42.810582" lon="0.623084">
        <ele>999.3</ele>
        <time>2019-11-24T17:17:00Z</time>
      </trkpt>
      <trkpt lat="42.810502" lon="0.622976">
        <ele>998.6</ele>
        <time>2019-11-24T17:17:08Z</time>
      </trkpt>
      <trkpt lat="42.810429" lon="0.622878">
        <ele>998.6</ele>
        <time>2019-11-24T17:17:15Z</time>
      </trkpt>
      <trkpt lat="42.810410" lon="0.622747">
        <ele>997.9</ele>
        <time>2019-11-24T17:17:21Z</time>
      </trkpt>
      <trkpt lat="42.810421" lon="0.622621">
        <ele>997.1</ele>
        <time>2019-11-24T17:17:28Z</time>
      </trkpt>
      <trkpt lat="42.810443" lon="0.622502">
        <ele>996.1</ele>
        <time>2019-11-24T17:17:35Z</time>
      </trkpt>
      <trkpt lat="42.810477" lon="0.622388">
        <ele>995.1</ele>
        <time>2019-11-24T17:17:42Z</time>
      </trkpt>
      <trkpt lat="42.810523" lon="0.622269">
        <ele>993.3</ele>
        <time>2019-11-24T17:17:50Z</time>
      </trkpt>
      <trkpt lat="42.810570" lon="0.622158">
        <ele>992.2</ele>
        <time>2019-11-24T17:17:57Z</time>
      </trkpt>
      <trkpt lat="42.810627" lon="0.622045">
        <ele>989.5</ele>
        <time>2019-11-24T17:18:05Z</time>
      </trkpt>
      <trkpt lat="42.810682" lon="0.621930">
        <ele>987.8</ele>
        <time>2019-11-24T17:18:13Z</time>
      </trkpt>
      <trkpt lat="42.810769" lon="0.621828">
        <ele>987.0</ele>
        <time>2019-11-24T17:18:21Z</time>
      </trkpt>
      <trkpt lat="42.810856" lon="0.621738">
        <ele>986.2</ele>
        <time>2019-11-24T17:18:29Z</time>
      </trkpt>
      <trkpt lat="42.810913" lon="0.621610">
        <ele>985.4</ele>
        <time>2019-11-24T17:18:37Z</time>
      </trkpt>
      <trkpt lat="42.810960" lon="0.621484">
        <ele>984.5</ele>
        <time>2019-11-24T17:18:45Z</time>
      </trkpt>
      <trkpt lat="42.810984" lon="0.621351">
        <ele>983.6</ele>
        <time>2019-11-24T17:18:52Z</time>
      </trkpt>
      <trkpt lat="42.811006" lon="0.621227">
        <ele>981.7</ele>
        <time>2019-11-24T17:18:59Z</time>
      </trkpt>
      <trkpt lat="42.811048" lon="0.621071">
        <ele>980.7</ele>
        <time>2019-11-24T17:19:08Z</time>
      </trkpt>
      <trkpt lat="42.811020" lon="0.620933">
        <ele>979.9</ele>
        <time>2019-11-24T17:19:15Z</time>
      </trkpt>
      <trkpt lat="42.810979" lon="0.620797">
        <ele>979.0</ele>
        <time>2019-11-24T17:19:22Z</time>
      </trkpt>
      <trkpt lat="42.810958" lon="0.620654">
        <ele>976.4</ele>
        <time>2019-11-24T17:19:30Z</time>
      </trkpt>
      <trkpt lat="42.810940" lon="0.620519">
        <ele>974.7</ele>
        <time>2019-11-24T17:19:38Z</time>
      </trkpt>
      <trkpt lat="42.810932" lon="0.620392">
        <ele>972.7</ele>
        <time>2019-11-24T17:19:45Z</time>
      </trkpt>
      <trkpt lat="42.810904" lon="0.620264">
        <ele>970.8</ele>
        <time>2019-11-24T17:19:52Z</time>
      </trkpt>
      <trkpt lat="42.810872" lon="0.620142">
        <ele>970.0</ele>
        <time>2019-11-24T17:19:59Z</time>
      </trkpt>
      <trkpt lat="42.810831" lon="0.620031">
        <ele>968.3</ele>
        <time>2019-11-24T17:20:05Z</time>
      </trkpt>
      <trkpt lat="42.810809" lon="0.619903">
        <ele>967.5</ele>
        <time>2019-11-24T17:20:12Z</time>
      </trkpt>
      <trkpt lat="42.810782" lon="0.619773">
        <ele>966.6</ele>
        <time>2019-11-24T17:20:19Z</time>
      </trkpt>
      <trkpt lat="42.810761" lon="0.619641">
        <ele>965.9</ele>
        <time>2019-11-24T17:20:26Z</time>
      </trkpt>
      <trkpt lat="42.810745" lon="0.619506">
        <ele>966.0</ele>
        <time>2019-11-24T17:20:33Z</time>
      </trkpt>
      <trkpt lat="42.810745" lon="0.619388">
        <ele>963.6</ele>
        <time>2019-11-24T17:20:40Z</time>
      </trkpt>
      <trkpt lat="42.810745" lon="0.619258">
        <ele>962.7</ele>
        <time>2019-11-24T17:20:48Z</time>
      </trkpt>
      <trkpt lat="42.810752" lon="0.619113">
        <ele>961.9</ele>
        <time>2019-11-24T17:20:55Z</time>
      </trkpt>
      <trkpt lat="42.810757" lon="0.618985">
        <ele>962.0</ele>
        <time>2019-11-24T17:21:02Z</time>
      </trkpt>
      <trkpt lat="42.810766" lon="0.618850">
        <ele>961.2</ele>
        <time>2019-11-24T17:21:10Z</time>
      </trkpt>
      <trkpt lat="42.810776" lon="0.618723">
        <ele>960.5</ele>
        <time>2019-11-24T17:21:17Z</time>
      </trkpt>
      <trkpt lat="42.810791" lon="0.618601">
        <ele>960.5</ele>
        <time>2019-11-24T17:21:24Z</time>
      </trkpt>
      <trkpt lat="42.810818" lon="0.618470">
        <ele>960.5</ele>
        <time>2019-11-24T17:21:32Z</time>
      </trkpt>
      <trkpt lat="42.810849" lon="0.618349">
        <ele>959.7</ele>
        <time>2019-11-24T17:21:39Z</time>
      </trkpt>
      <trkpt lat="42.810884" lon="0.618218">
        <ele>959.6</ele>
        <time>2019-11-24T17:21:47Z</time>
      </trkpt>
      <trkpt lat="42.810917" lon="0.618099">
        <ele>959.6</ele>
        <time>2019-11-24T17:21:54Z</time>
      </trkpt>
      <trkpt lat="42.810947" lon="0.617977">
        <ele>958.9</ele>
        <time>2019-11-24T17:22:01Z</time>
      </trkpt>
      <trkpt lat="42.810980" lon="0.617851">
        <ele>958.9</ele>
        <time>2019-11-24T17:22:09Z</time>
      </trkpt>
      <trkpt lat="42.811017" lon="0.617719">
        <ele>958.1</ele>
        <time>2019-11-24T17:22:17Z</time>
      </trkpt>
      <trkpt lat="42.811051" lon="0.617593">
        <ele>958.0</ele>
        <time>2019-11-24T17:22:25Z</time>
      </trkpt>
      <trkpt lat="42.811084" lon="0.617476">
        <ele>956.3</ele>
        <time>2019-11-24T17:22:32Z</time>
      </trkpt>
      <trkpt lat="42.811115" lon="0.617359">
        <ele>955.5</ele>
        <time>2019-11-24T17:22:39Z</time>
      </trkpt>
      <trkpt lat="42.811145" lon="0.617234">
        <ele>954.7</ele>
        <time>2019-11-24T17:22:47Z</time>
      </trkpt>
      <trkpt lat="42.811192" lon="0.617118">
        <ele>953.8</ele>
        <time>2019-11-24T17:22:55Z</time>
      </trkpt>
      <trkpt lat="42.811238" lon="0.617002">
        <ele>952.9</ele>
        <time>2019-11-24T17:23:02Z</time>
      </trkpt>
      <trkpt lat="42.811267" lon="0.616872">
        <ele>952.2</ele>
        <time>2019-11-24T17:23:10Z</time>
      </trkpt>
      <trkpt lat="42.811314" lon="0.616763">
        <ele>952.2</ele>
        <time>2019-11-24T17:23:18Z</time>
      </trkpt>
      <trkpt lat="42.811364" lon="0.616648">
        <ele>952.2</ele>
        <time>2019-11-24T17:23:27Z</time>
      </trkpt>
      <trkpt lat="42.811429" lon="0.616552">
        <ele>952.1</ele>
        <time>2019-11-24T17:23:37Z</time>
      </trkpt>
      <trkpt lat="42.811496" lon="0.616473">
        <ele>933.5</ele>
        <time>2019-11-24T17:24:43Z</time>
      </trkpt>
    </trkseg>
  </trk>
</gpx>

